<?xml version="1.0" encoding="UTF-8" standalone="no" ?>
<gpx xmlns="http://www.topografix.com/GPX/1/1" xmlns:xsi="http://www.w3.org/2001/XMLSchema-instance" xsi:schemaLocation="http://www.topografix.com/GPX/1/1 http://www.topografix.com/GPX/1/1/gpx.xsd" version="1.1" creator="VisuGPX - https://www.visugpx.com">
  <metadata>
    <name>Domicile vers GR3 Orvault</name>
    <desc><![CDATA[Trajet reliant mon domicile au Gr3 via Orvault bourg]]></desc>
  </metadata>
  <trk>
    <name><![CDATA[001-2011/12/18-10:24:19]]></name>
    <trkseg>
      <trkpt lat="47.24109" lon="-1.54811">
        <ele>13</ele>
        <time>2011-12-18T10:48:28Z</time>
      </trkpt>
      <trkpt lat="47.24182" lon="-1.54802">
        <ele>-2</ele>
        <time>2011-12-18T10:48:43Z</time>
      </trkpt>
      <trkpt lat="47.24205" lon="-1.54807">
        <ele>-4</ele>
        <time>2011-12-18T10:48:49Z</time>
      </trkpt>
      <trkpt lat="47.24209" lon="-1.54811">
        <ele>-7</ele>
        <time>2011-12-18T10:48:50Z</time>
      </trkpt>
      <trkpt lat="47.24217" lon="-1.5482">
        <ele>-7</ele>
        <time>2011-12-18T10:48:57Z</time>
      </trkpt>
      <trkpt lat="47.24233" lon="-1.54825">
        <ele>-7</ele>
        <time>2011-12-18T10:48:58Z</time>
      </trkpt>
      <trkpt lat="47.24247" lon="-1.54824">
        <ele>-7</ele>
        <time>2011-12-18T10:49:07Z</time>
      </trkpt>
      <trkpt lat="47.24249" lon="-1.54822">
        <ele>-4</ele>
        <time>2011-12-18T10:49:16Z</time>
      </trkpt>
      <trkpt lat="47.24256" lon="-1.54819">
        <ele>-2</ele>
        <time>2011-12-18T10:49:22Z</time>
      </trkpt>
      <trkpt lat="47.24258" lon="-1.54818">
        <ele>11</ele>
        <time>2011-12-18T10:49:24Z</time>
      </trkpt>
      <trkpt lat="47.24264" lon="-1.54815">
        <ele>11</ele>
        <time>2011-12-18T10:49:37Z</time>
      </trkpt>
      <trkpt lat="47.2427" lon="-1.54816">
        <ele>11</ele>
        <time>2011-12-18T10:49:46Z</time>
      </trkpt>
      <trkpt lat="47.24317" lon="-1.54798">
        <ele>13</ele>
        <time>2011-12-18T10:50:08Z</time>
      </trkpt>
      <trkpt lat="47.24324" lon="-1.54791">
        <ele>12</ele>
        <time>2011-12-18T10:50:08Z</time>
      </trkpt>
      <trkpt lat="47.2433" lon="-1.54773">
        <ele>12</ele>
        <time>2011-12-18T10:50:12Z</time>
      </trkpt>
      <trkpt lat="47.24349" lon="-1.5475">
        <ele>1</ele>
        <time>2011-12-18T10:50:19Z</time>
      </trkpt>
      <trkpt lat="47.24573" lon="-1.5461">
        <ele>4</ele>
        <time>2011-12-18T10:51:03Z</time>
      </trkpt>
      <trkpt lat="47.2463" lon="-1.54604">
        <ele>4</ele>
        <time>2011-12-18T10:51:17Z</time>
      </trkpt>
      <trkpt lat="47.24632" lon="-1.54604">
        <ele>4</ele>
        <time>2011-12-18T10:51:18Z</time>
      </trkpt>
      <trkpt lat="47.24634" lon="-1.54603">
        <ele>4</ele>
        <time>2011-12-18T10:51:20Z</time>
      </trkpt>
      <trkpt lat="47.2464" lon="-1.54595">
        <ele>4</ele>
        <time>2011-12-18T10:51:27Z</time>
      </trkpt>
      <trkpt lat="47.24713" lon="-1.54563">
        <ele>2</ele>
        <time>2011-12-18T10:51:40Z</time>
      </trkpt>
      <trkpt lat="47.24724" lon="-1.54552">
        <ele>1</ele>
        <time>2011-12-18T10:51:44Z</time>
      </trkpt>
      <trkpt lat="47.24738" lon="-1.54546">
        <ele>1</ele>
        <time>2011-12-18T10:51:46Z</time>
      </trkpt>
      <trkpt lat="47.24758" lon="-1.54515">
        <ele>1</ele>
        <time>2011-12-18T10:51:55Z</time>
      </trkpt>
      <trkpt lat="47.24768" lon="-1.54508">
        <ele>1</ele>
        <time>2011-12-18T10:52:00Z</time>
      </trkpt>
      <trkpt lat="47.24789" lon="-1.54479">
        <ele>1</ele>
        <time>2011-12-18T10:52:08Z</time>
      </trkpt>
      <trkpt lat="47.24794" lon="-1.54475">
        <ele>1</ele>
        <time>2011-12-18T10:52:11Z</time>
      </trkpt>
      <trkpt lat="47.24922" lon="-1.54331">
        <ele>1</ele>
        <time>2011-12-18T10:52:51Z</time>
      </trkpt>
      <trkpt lat="47.24926" lon="-1.54327">
        <ele>13</ele>
        <time>2011-12-18T10:52:52Z</time>
      </trkpt>
      <trkpt lat="47.25066" lon="-1.54148">
        <ele>7</ele>
        <time>2011-12-18T10:53:27Z</time>
      </trkpt>
      <trkpt lat="47.2512" lon="-1.54105">
        <ele>6</ele>
        <time>2011-12-18T10:53:41Z</time>
      </trkpt>
      <trkpt lat="47.25132" lon="-1.54087">
        <ele>5</ele>
        <time>2011-12-18T10:53:47Z</time>
      </trkpt>
      <trkpt lat="47.2515" lon="-1.54072">
        <ele>3</ele>
        <time>2011-12-18T10:53:59Z</time>
      </trkpt>
      <trkpt lat="47.25324" lon="-1.54031">
        <ele>1</ele>
        <time>2011-12-18T10:54:44Z</time>
      </trkpt>
      <trkpt lat="47.25326" lon="-1.54032">
        <ele>1</ele>
        <time>2011-12-18T10:54:45Z</time>
      </trkpt>
      <trkpt lat="47.25328" lon="-1.54038">
        <ele>1</ele>
        <time>2011-12-18T10:54:47Z</time>
      </trkpt>
      <trkpt lat="47.2533" lon="-1.54041">
        <ele>1</ele>
        <time>2011-12-18T10:54:52Z</time>
      </trkpt>
      <trkpt lat="47.25337" lon="-1.54041">
        <ele>1</ele>
        <time>2011-12-18T10:54:54Z</time>
      </trkpt>
      <trkpt lat="47.2536" lon="-1.54034">
        <ele>1</ele>
        <time>2011-12-18T10:55:01Z</time>
      </trkpt>
      <trkpt lat="47.25362" lon="-1.54031">
        <ele>1</ele>
        <time>2011-12-18T10:55:02Z</time>
      </trkpt>
      <trkpt lat="47.25369" lon="-1.54028">
        <ele>1</ele>
        <time>2011-12-18T10:55:07Z</time>
      </trkpt>
      <trkpt lat="47.25459" lon="-1.54007">
        <ele>2</ele>
        <time>2011-12-18T10:55:33Z</time>
      </trkpt>
      <trkpt lat="47.2549" lon="-1.54013">
        <ele>2</ele>
        <time>2011-12-18T10:55:40Z</time>
      </trkpt>
      <trkpt lat="47.25588" lon="-1.53981">
        <ele>2</ele>
        <time>2011-12-18T10:56:12Z</time>
      </trkpt>
      <trkpt lat="47.25592" lon="-1.53977">
        <ele>2</ele>
        <time>2011-12-18T10:56:13Z</time>
      </trkpt>
      <trkpt lat="47.25603" lon="-1.53972">
        <ele>2</ele>
        <time>2011-12-18T10:56:19Z</time>
      </trkpt>
      <trkpt lat="47.25608" lon="-1.53979">
        <ele>2</ele>
        <time>2011-12-18T10:56:19Z</time>
      </trkpt>
      <trkpt lat="47.25608" lon="-1.53982">
        <ele>2</ele>
        <time>2011-12-18T10:56:21Z</time>
      </trkpt>
      <trkpt lat="47.25608" lon="-1.53983">
        <ele>2</ele>
        <time>2011-12-18T10:56:22Z</time>
      </trkpt>
      <trkpt lat="47.25605" lon="-1.53988">
        <ele>3</ele>
        <time>2011-12-18T10:56:27Z</time>
      </trkpt>
      <trkpt lat="47.25595" lon="-1.53994">
        <ele>3</ele>
        <time>2011-12-18T10:56:28Z</time>
      </trkpt>
      <trkpt lat="47.25592" lon="-1.53994">
        <ele>4</ele>
        <time>2011-12-18T10:56:29Z</time>
      </trkpt>
      <trkpt lat="47.2559" lon="-1.53995">
        <ele>6</ele>
        <time>2011-12-18T10:56:30Z</time>
      </trkpt>
      <trkpt lat="47.25571" lon="-1.54006">
        <ele>8</ele>
        <time>2011-12-18T10:56:36Z</time>
      </trkpt>
      <trkpt lat="47.25569" lon="-1.5401">
        <ele>9</ele>
        <time>2011-12-18T10:56:37Z</time>
      </trkpt>
      <trkpt lat="47.25569" lon="-1.54012">
        <ele>10</ele>
        <time>2011-12-18T10:56:38Z</time>
      </trkpt>
      <trkpt lat="47.2557" lon="-1.54015">
        <ele>10</ele>
        <time>2011-12-18T10:56:43Z</time>
      </trkpt>
      <trkpt lat="47.25605" lon="-1.54004">
        <ele>11</ele>
        <time>2011-12-18T10:56:53Z</time>
      </trkpt>
      <trkpt lat="47.25611" lon="-1.54005">
        <ele>11</ele>
        <time>2011-12-18T10:56:58Z</time>
      </trkpt>
      <trkpt lat="47.25618" lon="-1.54016">
        <ele>11</ele>
        <time>2011-12-18T10:56:58Z</time>
      </trkpt>
      <trkpt lat="47.2562" lon="-1.54025">
        <ele>11</ele>
        <time>2011-12-18T10:57:00Z</time>
      </trkpt>
      <trkpt lat="47.25618" lon="-1.54044">
        <ele>11</ele>
        <time>2011-12-18T10:57:06Z</time>
      </trkpt>
      <trkpt lat="47.25616" lon="-1.54044">
        <ele>11</ele>
        <time>2011-12-18T10:57:08Z</time>
      </trkpt>
      <trkpt lat="47.25615" lon="-1.54042">
        <ele>11</ele>
        <time>2011-12-18T10:57:09Z</time>
      </trkpt>
      <trkpt lat="47.25572" lon="-1.53887">
        <ele>18</ele>
        <time>2011-12-18T10:57:53Z</time>
      </trkpt>
      <trkpt lat="47.25574" lon="-1.53883">
        <ele>18</ele>
        <time>2011-12-18T10:58:01Z</time>
      </trkpt>
      <trkpt lat="47.25575" lon="-1.53882">
        <ele>18</ele>
        <time>2011-12-18T10:58:10Z</time>
      </trkpt>
      <trkpt lat="47.25574" lon="-1.53883">
        <ele>18</ele>
        <time>2011-12-18T10:58:17Z</time>
      </trkpt>
      <trkpt lat="47.2557" lon="-1.53887">
        <ele>18</ele>
        <time>2011-12-18T10:58:25Z</time>
      </trkpt>
      <trkpt lat="47.25569" lon="-1.53888">
        <ele>18</ele>
        <time>2011-12-18T10:58:33Z</time>
      </trkpt>
      <trkpt lat="47.25573" lon="-1.53892">
        <ele>18</ele>
        <time>2011-12-18T10:59:07Z</time>
      </trkpt>
      <trkpt lat="47.25618" lon="-1.54046">
        <ele>16</ele>
        <time>2011-12-18T10:59:52Z</time>
      </trkpt>
      <trkpt lat="47.25619" lon="-1.54048">
        <ele>15</ele>
        <time>2011-12-18T10:59:53Z</time>
      </trkpt>
      <trkpt lat="47.25621" lon="-1.54047">
        <ele>15</ele>
        <time>2011-12-18T10:59:54Z</time>
      </trkpt>
      <trkpt lat="47.25623" lon="-1.54037">
        <ele>14</ele>
        <time>2011-12-18T11:00:01Z</time>
      </trkpt>
      <trkpt lat="47.25615" lon="-1.54007">
        <ele>13</ele>
        <time>2011-12-18T11:00:03Z</time>
      </trkpt>
      <trkpt lat="47.2561" lon="-1.54003">
        <ele>13</ele>
        <time>2011-12-18T11:00:09Z</time>
      </trkpt>
      <trkpt lat="47.25571" lon="-1.54017">
        <ele>13</ele>
        <time>2011-12-18T11:00:17Z</time>
      </trkpt>
      <trkpt lat="47.2557" lon="-1.54016">
        <ele>13</ele>
        <time>2011-12-18T11:00:18Z</time>
      </trkpt>
      <trkpt lat="47.25569" lon="-1.54014">
        <ele>13</ele>
        <time>2011-12-18T11:00:19Z</time>
      </trkpt>
      <trkpt lat="47.25567" lon="-1.54012">
        <ele>13</ele>
        <time>2011-12-18T11:00:25Z</time>
      </trkpt>
      <trkpt lat="47.25576" lon="-1.54004">
        <ele>13</ele>
        <time>2011-12-18T11:00:26Z</time>
      </trkpt>
      <trkpt lat="47.25584" lon="-1.54001">
        <ele>13</ele>
        <time>2011-12-18T11:00:28Z</time>
      </trkpt>
      <trkpt lat="47.25608" lon="-1.53982">
        <ele>13</ele>
        <time>2011-12-18T11:00:35Z</time>
      </trkpt>
      <trkpt lat="47.25611" lon="-1.53977">
        <ele>13</ele>
        <time>2011-12-18T11:00:40Z</time>
      </trkpt>
      <trkpt lat="47.25615" lon="-1.53963">
        <ele>13</ele>
        <time>2011-12-18T11:00:40Z</time>
      </trkpt>
      <trkpt lat="47.25647" lon="-1.53941">
        <ele>13</ele>
        <time>2011-12-18T11:00:46Z</time>
      </trkpt>
      <trkpt lat="47.257" lon="-1.53933">
        <ele>11</ele>
        <time>2011-12-18T11:01:01Z</time>
      </trkpt>
      <trkpt lat="47.25733" lon="-1.53942">
        <ele>8</ele>
        <time>2011-12-18T11:01:08Z</time>
      </trkpt>
      <trkpt lat="47.25762" lon="-1.53962">
        <ele>8</ele>
        <time>2011-12-18T11:01:11Z</time>
      </trkpt>
      <trkpt lat="47.25771" lon="-1.53962">
        <ele>8</ele>
        <time>2011-12-18T11:01:17Z</time>
      </trkpt>
      <trkpt lat="47.25837" lon="-1.53945">
        <ele>7</ele>
        <time>2011-12-18T11:01:30Z</time>
      </trkpt>
      <trkpt lat="47.25922" lon="-1.5389">
        <ele>5</ele>
        <time>2011-12-18T11:01:46Z</time>
      </trkpt>
      <trkpt lat="47.25954" lon="-1.53863">
        <ele>3</ele>
        <time>2011-12-18T11:01:58Z</time>
      </trkpt>
      <trkpt lat="47.26009" lon="-1.53844">
        <ele>3</ele>
        <time>2011-12-18T11:02:05Z</time>
      </trkpt>
      <trkpt lat="47.26083" lon="-1.53843">
        <ele>2</ele>
        <time>2011-12-18T11:02:19Z</time>
      </trkpt>
      <trkpt lat="47.26119" lon="-1.53835">
        <ele>1</ele>
        <time>2011-12-18T11:02:26Z</time>
      </trkpt>
      <trkpt lat="47.26164" lon="-1.53844">
        <ele>1</ele>
        <time>2011-12-18T11:02:40Z</time>
      </trkpt>
      <trkpt lat="47.26181" lon="-1.53854">
        <ele>1</ele>
        <time>2011-12-18T11:02:40Z</time>
      </trkpt>
      <trkpt lat="47.26184" lon="-1.53856">
        <ele>1</ele>
        <time>2011-12-18T11:02:41Z</time>
      </trkpt>
      <trkpt lat="47.26185" lon="-1.53859">
        <ele>1</ele>
        <time>2011-12-18T11:02:47Z</time>
      </trkpt>
      <trkpt lat="47.26193" lon="-1.53858">
        <ele>1</ele>
        <time>2011-12-18T11:02:47Z</time>
      </trkpt>
      <trkpt lat="47.26197" lon="-1.53859">
        <ele>1</ele>
        <time>2011-12-18T11:02:48Z</time>
      </trkpt>
      <trkpt lat="47.26303" lon="-1.53947">
        <ele>7</ele>
        <time>2011-12-18T11:03:14Z</time>
      </trkpt>
      <trkpt lat="47.26306" lon="-1.5395">
        <ele>9</ele>
        <time>2011-12-18T11:03:15Z</time>
      </trkpt>
      <trkpt lat="47.26315" lon="-1.53961">
        <ele>11</ele>
        <time>2011-12-18T11:03:21Z</time>
      </trkpt>
      <trkpt lat="47.26333" lon="-1.53975">
        <ele>12</ele>
        <time>2011-12-18T11:03:21Z</time>
      </trkpt>
      <trkpt lat="47.26407" lon="-1.53996">
        <ele>6</ele>
        <time>2011-12-18T11:03:35Z</time>
      </trkpt>
      <trkpt lat="47.26412" lon="-1.53993">
        <ele>5</ele>
        <time>2011-12-18T11:03:36Z</time>
      </trkpt>
      <trkpt lat="47.26413" lon="-1.53993">
        <ele>3</ele>
        <time>2011-12-18T11:03:38Z</time>
      </trkpt>
      <trkpt lat="47.26436" lon="-1.54004">
        <ele>7</ele>
        <time>2011-12-18T11:03:51Z</time>
      </trkpt>
      <trkpt lat="47.26449" lon="-1.54004">
        <ele>7</ele>
        <time>2011-12-18T11:03:52Z</time>
      </trkpt>
      <trkpt lat="47.26453" lon="-1.54003">
        <ele>7</ele>
        <time>2011-12-18T11:03:54Z</time>
      </trkpt>
      <trkpt lat="47.26482" lon="-1.53986">
        <ele>6</ele>
        <time>2011-12-18T11:04:06Z</time>
      </trkpt>
      <trkpt lat="47.26508" lon="-1.54046">
        <ele>10</ele>
        <time>2011-12-18T11:04:22Z</time>
      </trkpt>
      <trkpt lat="47.26509" lon="-1.5405">
        <ele>1</ele>
        <time>2011-12-18T11:04:23Z</time>
      </trkpt>
      <trkpt lat="47.26597" lon="-1.54232">
        <ele>9</ele>
        <time>2011-12-18T11:05:11Z</time>
      </trkpt>
      <trkpt lat="47.26598" lon="-1.54236">
        <ele>10</ele>
        <time>2011-12-18T11:05:12Z</time>
      </trkpt>
      <trkpt lat="47.26621" lon="-1.5429">
        <ele>14</ele>
        <time>2011-12-18T11:05:26Z</time>
      </trkpt>
      <trkpt lat="47.26631" lon="-1.5435">
        <ele>15</ele>
        <time>2011-12-18T11:05:39Z</time>
      </trkpt>
      <trkpt lat="47.26625" lon="-1.54368">
        <ele>18</ele>
        <time>2011-12-18T11:05:47Z</time>
      </trkpt>
      <trkpt lat="47.26616" lon="-1.54376">
        <ele>19</ele>
        <time>2011-12-18T11:05:48Z</time>
      </trkpt>
      <trkpt lat="47.26594" lon="-1.54379">
        <ele>19</ele>
        <time>2011-12-18T11:05:55Z</time>
      </trkpt>
      <trkpt lat="47.26591" lon="-1.5438">
        <ele>19</ele>
        <time>2011-12-18T11:05:56Z</time>
      </trkpt>
      <trkpt lat="47.26585" lon="-1.54385">
        <ele>19</ele>
        <time>2011-12-18T11:05:58Z</time>
      </trkpt>
      <trkpt lat="47.2658" lon="-1.54393">
        <ele>19</ele>
        <time>2011-12-18T11:06:04Z</time>
      </trkpt>
      <trkpt lat="47.26581" lon="-1.54416">
        <ele>19</ele>
        <time>2011-12-18T11:06:05Z</time>
      </trkpt>
      <trkpt lat="47.26591" lon="-1.54455">
        <ele>19</ele>
        <time>2011-12-18T11:06:13Z</time>
      </trkpt>
      <trkpt lat="47.26599" lon="-1.54462">
        <ele>19</ele>
        <time>2011-12-18T11:06:15Z</time>
      </trkpt>
      <trkpt lat="47.26604" lon="-1.54463">
        <ele>19</ele>
        <time>2011-12-18T11:06:16Z</time>
      </trkpt>
      <trkpt lat="47.2666" lon="-1.54455">
        <ele>19</ele>
        <time>2011-12-18T11:06:29Z</time>
      </trkpt>
      <trkpt lat="47.26725" lon="-1.54468">
        <ele>19</ele>
        <time>2011-12-18T11:06:44Z</time>
      </trkpt>
      <trkpt lat="47.26747" lon="-1.54488">
        <ele>19</ele>
        <time>2011-12-18T11:06:50Z</time>
      </trkpt>
      <trkpt lat="47.26768" lon="-1.54531">
        <ele>19</ele>
        <time>2011-12-18T11:06:59Z</time>
      </trkpt>
      <trkpt lat="47.26775" lon="-1.5456">
        <ele>20</ele>
        <time>2011-12-18T11:07:06Z</time>
      </trkpt>
      <trkpt lat="47.26779" lon="-1.54567">
        <ele>21</ele>
        <time>2011-12-18T11:07:07Z</time>
      </trkpt>
      <trkpt lat="47.26782" lon="-1.5457">
        <ele>21</ele>
        <time>2011-12-18T11:07:08Z</time>
      </trkpt>
      <trkpt lat="47.26789" lon="-1.54573">
        <ele>21</ele>
        <time>2011-12-18T11:07:14Z</time>
      </trkpt>
      <trkpt lat="47.26862" lon="-1.54583">
        <ele>21</ele>
        <time>2011-12-18T11:07:36Z</time>
      </trkpt>
      <trkpt lat="47.26873" lon="-1.54589">
        <ele>21</ele>
        <time>2011-12-18T11:07:36Z</time>
      </trkpt>
      <trkpt lat="47.26874" lon="-1.54612">
        <ele>21</ele>
        <time>2011-12-18T11:07:44Z</time>
      </trkpt>
      <trkpt lat="47.26869" lon="-1.54618">
        <ele>21</ele>
        <time>2011-12-18T11:07:45Z</time>
      </trkpt>
      <trkpt lat="47.26866" lon="-1.54619">
        <ele>21</ele>
        <time>2011-12-18T11:07:46Z</time>
      </trkpt>
      <trkpt lat="47.26862" lon="-1.54627">
        <ele>22</ele>
        <time>2011-12-18T11:07:48Z</time>
      </trkpt>
      <trkpt lat="47.26861" lon="-1.54637">
        <ele>22</ele>
        <time>2011-12-18T11:07:55Z</time>
      </trkpt>
      <trkpt lat="47.26867" lon="-1.54662">
        <ele>23</ele>
        <time>2011-12-18T11:07:56Z</time>
      </trkpt>
      <trkpt lat="47.26869" lon="-1.54667">
        <ele>23</ele>
        <time>2011-12-18T11:07:56Z</time>
      </trkpt>
      <trkpt lat="47.26925" lon="-1.54915">
        <ele>27</ele>
        <time>2011-12-18T11:08:33Z</time>
      </trkpt>
      <trkpt lat="47.26916" lon="-1.54981">
        <ele>27</ele>
        <time>2011-12-18T11:08:41Z</time>
      </trkpt>
      <trkpt lat="47.26958" lon="-1.55199">
        <ele>27</ele>
        <time>2011-12-18T11:09:17Z</time>
      </trkpt>
      <trkpt lat="47.26978" lon="-1.55227">
        <ele>27</ele>
        <time>2011-12-18T11:09:25Z</time>
      </trkpt>
      <trkpt lat="47.26979" lon="-1.55242">
        <ele>27</ele>
        <time>2011-12-18T11:09:27Z</time>
      </trkpt>
      <trkpt lat="47.26987" lon="-1.55266">
        <ele>27</ele>
        <time>2011-12-18T11:09:35Z</time>
      </trkpt>
      <trkpt lat="47.26987" lon="-1.55269">
        <ele>27</ele>
        <time>2011-12-18T11:09:37Z</time>
      </trkpt>
      <trkpt lat="47.26986" lon="-1.55272">
        <ele>27</ele>
        <time>2011-12-18T11:09:38Z</time>
      </trkpt>
      <trkpt lat="47.26983" lon="-1.55274">
        <ele>26</ele>
        <time>2011-12-18T11:09:56Z</time>
      </trkpt>
      <trkpt lat="47.26987" lon="-1.55272">
        <ele>15</ele>
        <time>2011-12-18T11:10:49Z</time>
      </trkpt>
      <trkpt lat="47.26986" lon="-1.55271">
        <ele>15</ele>
        <time>2011-12-18T11:11:52Z</time>
      </trkpt>
      <trkpt lat="47.26986" lon="-1.55269">
        <ele>15</ele>
        <time>2011-12-18T11:12:49Z</time>
      </trkpt>
      <trkpt lat="47.26987" lon="-1.55274">
        <ele>15</ele>
        <time>2011-12-18T11:13:06Z</time>
      </trkpt>
      <trkpt lat="47.26989" lon="-1.55274">
        <ele>15</ele>
        <time>2011-12-18T11:13:09Z</time>
      </trkpt>
      <trkpt lat="47.26992" lon="-1.55272">
        <ele>15</ele>
        <time>2011-12-18T11:13:16Z</time>
      </trkpt>
      <trkpt lat="47.26998" lon="-1.55276">
        <ele>15</ele>
        <time>2011-12-18T11:13:17Z</time>
      </trkpt>
      <trkpt lat="47.27003" lon="-1.55284">
        <ele>15</ele>
        <time>2011-12-18T11:13:24Z</time>
      </trkpt>
      <trkpt lat="47.27007" lon="-1.55296">
        <ele>15</ele>
        <time>2011-12-18T11:13:24Z</time>
      </trkpt>
      <trkpt lat="47.27005" lon="-1.55305">
        <ele>15</ele>
        <time>2011-12-18T11:13:27Z</time>
      </trkpt>
      <trkpt lat="47.27005" lon="-1.55308">
        <ele>16</ele>
        <time>2011-12-18T11:13:28Z</time>
      </trkpt>
      <trkpt lat="47.27045" lon="-1.5551">
        <ele>20</ele>
        <time>2011-12-18T11:14:07Z</time>
      </trkpt>
      <trkpt lat="47.27086" lon="-1.55554">
        <ele>19</ele>
        <time>2011-12-18T11:14:18Z</time>
      </trkpt>
      <trkpt lat="47.27096" lon="-1.55557">
        <ele>19</ele>
        <time>2011-12-18T11:14:18Z</time>
      </trkpt>
      <trkpt lat="47.27096" lon="-1.55558">
        <ele>19</ele>
        <time>2011-12-18T11:14:19Z</time>
      </trkpt>
      <trkpt lat="47.27096" lon="-1.5556">
        <ele>19</ele>
        <time>2011-12-18T11:14:20Z</time>
      </trkpt>
      <trkpt lat="47.27092" lon="-1.55566">
        <ele>19</ele>
        <time>2011-12-18T11:14:27Z</time>
      </trkpt>
      <trkpt lat="47.27074" lon="-1.55583">
        <ele>18</ele>
        <time>2011-12-18T11:14:28Z</time>
      </trkpt>
      <trkpt lat="47.27062" lon="-1.55605">
        <ele>16</ele>
        <time>2011-12-18T11:14:34Z</time>
      </trkpt>
      <trkpt lat="47.27062" lon="-1.55609">
        <ele>15</ele>
        <time>2011-12-18T11:14:34Z</time>
      </trkpt>
      <trkpt lat="47.27062" lon="-1.55613">
        <ele>14</ele>
        <time>2011-12-18T11:14:35Z</time>
      </trkpt>
      <trkpt lat="47.27063" lon="-1.55617">
        <ele>13</ele>
        <time>2011-12-18T11:14:36Z</time>
      </trkpt>
      <trkpt lat="47.27074" lon="-1.55659">
        <ele>12</ele>
        <time>2011-12-18T11:14:47Z</time>
      </trkpt>
      <trkpt lat="47.27057" lon="-1.55734">
        <ele>11</ele>
        <time>2011-12-18T11:14:57Z</time>
      </trkpt>
      <trkpt lat="47.27058" lon="-1.55736">
        <ele>11</ele>
        <time>2011-12-18T11:14:58Z</time>
      </trkpt>
      <trkpt lat="47.27064" lon="-1.5574">
        <ele>11</ele>
        <time>2011-12-18T11:15:04Z</time>
      </trkpt>
      <trkpt lat="47.27069" lon="-1.55751">
        <ele>11</ele>
        <time>2011-12-18T11:15:05Z</time>
      </trkpt>
      <trkpt lat="47.27069" lon="-1.55754">
        <ele>11</ele>
        <time>2011-12-18T11:15:12Z</time>
      </trkpt>
      <trkpt lat="47.27074" lon="-1.55777">
        <ele>11</ele>
        <time>2011-12-18T11:15:21Z</time>
      </trkpt>
      <trkpt lat="47.27084" lon="-1.55792">
        <ele>8</ele>
        <time>2011-12-18T11:15:29Z</time>
      </trkpt>
      <trkpt lat="47.27092" lon="-1.55796">
        <ele>7</ele>
        <time>2011-12-18T11:15:29Z</time>
      </trkpt>
      <trkpt lat="47.27097" lon="-1.55796">
        <ele>5</ele>
        <time>2011-12-18T11:15:31Z</time>
      </trkpt>
      <trkpt lat="47.27101" lon="-1.558">
        <ele>5</ele>
        <time>2011-12-18T11:15:37Z</time>
      </trkpt>
      <trkpt lat="47.27103" lon="-1.55827">
        <ele>5</ele>
        <time>2011-12-18T11:15:44Z</time>
      </trkpt>
      <trkpt lat="47.27118" lon="-1.5587">
        <ele>5</ele>
        <time>2011-12-18T11:15:51Z</time>
      </trkpt>
      <trkpt lat="47.27123" lon="-1.55876">
        <ele>5</ele>
        <time>2011-12-18T11:15:53Z</time>
      </trkpt>
      <trkpt lat="47.27139" lon="-1.55882">
        <ele>6</ele>
        <time>2011-12-18T11:15:58Z</time>
      </trkpt>
      <trkpt lat="47.27193" lon="-1.5599">
        <ele>20</ele>
        <time>2011-12-18T11:16:24Z</time>
      </trkpt>
      <trkpt lat="47.27208" lon="-1.56006">
        <ele>22</ele>
        <time>2011-12-18T11:16:26Z</time>
      </trkpt>
      <trkpt lat="47.2727" lon="-1.56037">
        <ele>20</ele>
        <time>2011-12-18T11:16:39Z</time>
      </trkpt>
      <trkpt lat="47.27281" lon="-1.56054">
        <ele>14</ele>
        <time>2011-12-18T11:16:46Z</time>
      </trkpt>
      <trkpt lat="47.27287" lon="-1.56071">
        <ele>13</ele>
        <time>2011-12-18T11:16:46Z</time>
      </trkpt>
      <trkpt lat="47.27296" lon="-1.56086">
        <ele>11</ele>
        <time>2011-12-18T11:16:52Z</time>
      </trkpt>
      <trkpt lat="47.2733" lon="-1.56108">
        <ele>10</ele>
        <time>2011-12-18T11:16:58Z</time>
      </trkpt>
      <trkpt lat="47.27339" lon="-1.56109">
        <ele>10</ele>
        <time>2011-12-18T11:17:00Z</time>
      </trkpt>
      <trkpt lat="47.27347" lon="-1.56112">
        <ele>11</ele>
        <time>2011-12-18T11:17:05Z</time>
      </trkpt>
      <trkpt lat="47.27363" lon="-1.56127">
        <ele>12</ele>
        <time>2011-12-18T11:17:07Z</time>
      </trkpt>
      <trkpt lat="47.2738" lon="-1.56129">
        <ele>12</ele>
        <time>2011-12-18T11:17:11Z</time>
      </trkpt>
      <trkpt lat="47.27389" lon="-1.56134">
        <ele>12</ele>
        <time>2011-12-18T11:17:14Z</time>
      </trkpt>
      <trkpt lat="47.27407" lon="-1.56136">
        <ele>10</ele>
        <time>2011-12-18T11:17:20Z</time>
      </trkpt>
      <trkpt lat="47.27418" lon="-1.56133">
        <ele>7</ele>
        <time>2011-12-18T11:17:26Z</time>
      </trkpt>
      <trkpt lat="47.27419" lon="-1.56134">
        <ele>6</ele>
        <time>2011-12-18T11:17:28Z</time>
      </trkpt>
      <trkpt lat="47.2742" lon="-1.56134">
        <ele>6</ele>
        <time>2011-12-18T11:17:28Z</time>
      </trkpt>
      <trkpt lat="47.27424" lon="-1.56135">
        <ele>6</ele>
        <time>2011-12-18T11:17:33Z</time>
      </trkpt>
      <trkpt lat="47.2743" lon="-1.56133">
        <ele>6</ele>
        <time>2011-12-18T11:17:34Z</time>
      </trkpt>
      <trkpt lat="47.27433" lon="-1.5613">
        <ele>6</ele>
        <time>2011-12-18T11:17:36Z</time>
      </trkpt>
      <trkpt lat="47.27436" lon="-1.56128">
        <ele>6</ele>
        <time>2011-12-18T11:17:42Z</time>
      </trkpt>
      <trkpt lat="47.27443" lon="-1.56121">
        <ele>6</ele>
        <time>2011-12-18T11:17:48Z</time>
      </trkpt>
      <trkpt lat="47.27444" lon="-1.56113">
        <ele>7</ele>
        <time>2011-12-18T11:17:57Z</time>
      </trkpt>
      <trkpt lat="47.27445" lon="-1.56113">
        <ele>9</ele>
        <time>2011-12-18T11:18:03Z</time>
      </trkpt>
      <trkpt lat="47.2746" lon="-1.56109">
        <ele>9</ele>
        <time>2011-12-18T11:18:11Z</time>
      </trkpt>
      <trkpt lat="47.27494" lon="-1.56084">
        <ele>9</ele>
        <time>2011-12-18T11:18:29Z</time>
      </trkpt>
      <trkpt lat="47.27506" lon="-1.56071">
        <ele>10</ele>
        <time>2011-12-18T11:18:36Z</time>
      </trkpt>
      <trkpt lat="47.27508" lon="-1.56066">
        <ele>11</ele>
        <time>2011-12-18T11:18:38Z</time>
      </trkpt>
      <trkpt lat="47.27508" lon="-1.56063">
        <ele>12</ele>
        <time>2011-12-18T11:18:39Z</time>
      </trkpt>
      <trkpt lat="47.27508" lon="-1.5606">
        <ele>13</ele>
        <time>2011-12-18T11:18:40Z</time>
      </trkpt>
      <trkpt lat="47.27513" lon="-1.56049">
        <ele>14</ele>
        <time>2011-12-18T11:18:47Z</time>
      </trkpt>
      <trkpt lat="47.27515" lon="-1.5604">
        <ele>18</ele>
        <time>2011-12-18T11:18:54Z</time>
      </trkpt>
      <trkpt lat="47.27516" lon="-1.56038">
        <ele>19</ele>
        <time>2011-12-18T11:18:59Z</time>
      </trkpt>
      <trkpt lat="47.27518" lon="-1.56039">
        <ele>19</ele>
        <time>2011-12-18T11:19:00Z</time>
      </trkpt>
      <trkpt lat="47.2752" lon="-1.56034">
        <ele>19</ele>
        <time>2011-12-18T11:19:08Z</time>
      </trkpt>
      <trkpt lat="47.27522" lon="-1.56033">
        <ele>19</ele>
        <time>2011-12-18T11:19:15Z</time>
      </trkpt>
      <trkpt lat="47.27526" lon="-1.56025">
        <ele>19</ele>
        <time>2011-12-18T11:19:16Z</time>
      </trkpt>
      <trkpt lat="47.27527" lon="-1.56023">
        <ele>20</ele>
        <time>2011-12-18T11:19:17Z</time>
      </trkpt>
      <trkpt lat="47.27528" lon="-1.56021">
        <ele>20</ele>
        <time>2011-12-18T11:19:18Z</time>
      </trkpt>
      <trkpt lat="47.27544" lon="-1.56008">
        <ele>20</ele>
        <time>2011-12-18T11:19:25Z</time>
      </trkpt>
      <trkpt lat="47.27548" lon="-1.56006">
        <ele>20</ele>
        <time>2011-12-18T11:19:30Z</time>
      </trkpt>
      <trkpt lat="47.27557" lon="-1.56007">
        <ele>20</ele>
        <time>2011-12-18T11:19:31Z</time>
      </trkpt>
      <trkpt lat="47.27564" lon="-1.56002">
        <ele>20</ele>
        <time>2011-12-18T11:19:36Z</time>
      </trkpt>
      <trkpt lat="47.27568" lon="-1.55993">
        <ele>20</ele>
        <time>2011-12-18T11:19:37Z</time>
      </trkpt>
      <trkpt lat="47.27568" lon="-1.55991">
        <ele>21</ele>
        <time>2011-12-18T11:19:39Z</time>
      </trkpt>
      <trkpt lat="47.2757" lon="-1.55985">
        <ele>21</ele>
        <time>2011-12-18T11:19:45Z</time>
      </trkpt>
      <trkpt lat="47.27573" lon="-1.55982">
        <ele>21</ele>
        <time>2011-12-18T11:19:46Z</time>
      </trkpt>
      <trkpt lat="47.27575" lon="-1.55982">
        <ele>21</ele>
        <time>2011-12-18T11:19:48Z</time>
      </trkpt>
      <trkpt lat="47.27599" lon="-1.56005">
        <ele>21</ele>
        <time>2011-12-18T11:20:01Z</time>
      </trkpt>
      <trkpt lat="47.276" lon="-1.56007">
        <ele>21</ele>
        <time>2011-12-18T11:20:02Z</time>
      </trkpt>
      <trkpt lat="47.27602" lon="-1.56009">
        <ele>21</ele>
        <time>2011-12-18T11:20:03Z</time>
      </trkpt>
      <trkpt lat="47.27622" lon="-1.56062">
        <ele>21</ele>
        <time>2011-12-18T11:20:17Z</time>
      </trkpt>
      <trkpt lat="47.27657" lon="-1.56108">
        <ele>21</ele>
        <time>2011-12-18T11:20:34Z</time>
      </trkpt>
      <trkpt lat="47.27735" lon="-1.56142">
        <ele>28</ele>
        <time>2011-12-18T11:20:53Z</time>
      </trkpt>
      <trkpt lat="47.27739" lon="-1.56145">
        <ele>29</ele>
        <time>2011-12-18T11:20:54Z</time>
      </trkpt>
      <trkpt lat="47.27807" lon="-1.56295">
        <ele>30</ele>
        <time>2011-12-18T11:21:32Z</time>
      </trkpt>
      <trkpt lat="47.27854" lon="-1.56364">
        <ele>27</ele>
        <time>2011-12-18T11:21:39Z</time>
      </trkpt>
      <trkpt lat="47.27856" lon="-1.56492">
        <ele>22</ele>
        <time>2011-12-18T11:21:51Z</time>
      </trkpt>
      <trkpt lat="47.27859" lon="-1.5651">
        <ele>20</ele>
        <time>2011-12-18T11:21:53Z</time>
      </trkpt>
      <trkpt lat="47.27909" lon="-1.56581">
        <ele>13</ele>
        <time>2011-12-18T11:22:11Z</time>
      </trkpt>
      <trkpt lat="47.27918" lon="-1.56586">
        <ele>7</ele>
        <time>2011-12-18T11:22:21Z</time>
      </trkpt>
      <trkpt lat="47.27917" lon="-1.56588">
        <ele>5</ele>
        <time>2011-12-18T11:22:28Z</time>
      </trkpt>
      <trkpt lat="47.27914" lon="-1.56588">
        <ele>5</ele>
        <time>2011-12-18T11:22:29Z</time>
      </trkpt>
      <trkpt lat="47.27915" lon="-1.56586">
        <ele>5</ele>
        <time>2011-12-18T11:22:38Z</time>
      </trkpt>
      <trkpt lat="47.27918" lon="-1.56585">
        <ele>5</ele>
        <time>2011-12-18T11:22:45Z</time>
      </trkpt>
      <trkpt lat="47.27921" lon="-1.56583">
        <ele>5</ele>
        <time>2011-12-18T11:22:46Z</time>
      </trkpt>
      <trkpt lat="47.27928" lon="-1.56583">
        <ele>5</ele>
        <time>2011-12-18T11:22:54Z</time>
      </trkpt>
      <trkpt lat="47.27932" lon="-1.56581">
        <ele>5</ele>
        <time>2011-12-18T11:23:01Z</time>
      </trkpt>
      <trkpt lat="47.27942" lon="-1.56591">
        <ele>6</ele>
        <time>2011-12-18T11:23:08Z</time>
      </trkpt>
      <trkpt lat="47.27992" lon="-1.56602">
        <ele>6</ele>
        <time>2011-12-18T11:23:17Z</time>
      </trkpt>
      <trkpt lat="47.27998" lon="-1.56606">
        <ele>6</ele>
        <time>2011-12-18T11:23:19Z</time>
      </trkpt>
      <trkpt lat="47.28015" lon="-1.56611">
        <ele>6</ele>
        <time>2011-12-18T11:23:24Z</time>
      </trkpt>
      <trkpt lat="47.28072" lon="-1.56611">
        <ele>6</ele>
        <time>2011-12-18T11:23:44Z</time>
      </trkpt>
      <trkpt lat="47.281" lon="-1.56601">
        <ele>6</ele>
        <time>2011-12-18T11:23:50Z</time>
      </trkpt>
      <trkpt lat="47.28111" lon="-1.566">
        <ele>6</ele>
        <time>2011-12-18T11:23:56Z</time>
      </trkpt>
      <trkpt lat="47.28163" lon="-1.56574">
        <ele>7</ele>
        <time>2011-12-18T11:24:10Z</time>
      </trkpt>
      <trkpt lat="47.28176" lon="-1.56564">
        <ele>7</ele>
        <time>2011-12-18T11:24:16Z</time>
      </trkpt>
      <trkpt lat="47.28179" lon="-1.56564">
        <ele>7</ele>
        <time>2011-12-18T11:24:17Z</time>
      </trkpt>
      <trkpt lat="47.28181" lon="-1.56562">
        <ele>7</ele>
        <time>2011-12-18T11:24:22Z</time>
      </trkpt>
      <trkpt lat="47.28184" lon="-1.56557">
        <ele>7</ele>
        <time>2011-12-18T11:24:22Z</time>
      </trkpt>
      <trkpt lat="47.28184" lon="-1.56552">
        <ele>7</ele>
        <time>2011-12-18T11:24:25Z</time>
      </trkpt>
      <trkpt lat="47.28188" lon="-1.56546">
        <ele>8</ele>
        <time>2011-12-18T11:24:33Z</time>
      </trkpt>
      <trkpt lat="47.28192" lon="-1.56541">
        <ele>8</ele>
        <time>2011-12-18T11:24:40Z</time>
      </trkpt>
      <trkpt lat="47.28194" lon="-1.5654">
        <ele>8</ele>
        <time>2011-12-18T11:24:47Z</time>
      </trkpt>
      <trkpt lat="47.28196" lon="-1.56536">
        <ele>9</ele>
        <time>2011-12-18T11:24:47Z</time>
      </trkpt>
      <trkpt lat="47.28215" lon="-1.56506">
        <ele>10</ele>
        <time>2011-12-18T11:25:02Z</time>
      </trkpt>
      <trkpt lat="47.28231" lon="-1.56491">
        <ele>10</ele>
        <time>2011-12-18T11:25:09Z</time>
      </trkpt>
      <trkpt lat="47.28232" lon="-1.56491">
        <ele>10</ele>
        <time>2011-12-18T11:25:10Z</time>
      </trkpt>
      <trkpt lat="47.28233" lon="-1.5649">
        <ele>10</ele>
        <time>2011-12-18T11:25:11Z</time>
      </trkpt>
      <trkpt lat="47.28236" lon="-1.56491">
        <ele>10</ele>
        <time>2011-12-18T11:25:18Z</time>
      </trkpt>
      <trkpt lat="47.28233" lon="-1.56491">
        <ele>9</ele>
        <time>2011-12-18T11:25:33Z</time>
      </trkpt>
      <trkpt lat="47.28233" lon="-1.56489">
        <ele>6</ele>
        <time>2011-12-18T11:25:34Z</time>
      </trkpt>
      <trkpt lat="47.28235" lon="-1.56483">
        <ele>5</ele>
        <time>2011-12-18T11:25:40Z</time>
      </trkpt>
      <trkpt lat="47.28237" lon="-1.56482">
        <ele>1</ele>
        <time>2011-12-18T11:25:48Z</time>
      </trkpt>
      <trkpt lat="47.28244" lon="-1.56482">
        <ele>22</ele>
        <time>2011-12-18T11:25:49Z</time>
      </trkpt>
      <trkpt lat="47.28246" lon="-1.56482">
        <ele>22</ele>
        <time>2011-12-18T11:25:50Z</time>
      </trkpt>
      <trkpt lat="47.28257" lon="-1.56479">
        <ele>20</ele>
        <time>2011-12-18T11:25:56Z</time>
      </trkpt>
      <trkpt lat="47.2826" lon="-1.56479">
        <ele>20</ele>
        <time>2011-12-18T11:25:59Z</time>
      </trkpt>
      <trkpt lat="47.28263" lon="-1.56477">
        <ele>20</ele>
        <time>2011-12-18T11:26:04Z</time>
      </trkpt>
      <trkpt lat="47.28269" lon="-1.5648">
        <ele>20</ele>
        <time>2011-12-18T11:26:05Z</time>
      </trkpt>
      <trkpt lat="47.28278" lon="-1.5648">
        <ele>20</ele>
        <time>2011-12-18T11:26:14Z</time>
      </trkpt>
      <trkpt lat="47.2828" lon="-1.56481">
        <ele>20</ele>
        <time>2011-12-18T11:26:15Z</time>
      </trkpt>
      <trkpt lat="47.28288" lon="-1.56478">
        <ele>20</ele>
        <time>2011-12-18T11:26:20Z</time>
      </trkpt>
      <trkpt lat="47.2829" lon="-1.56478">
        <ele>20</ele>
        <time>2011-12-18T11:26:21Z</time>
      </trkpt>
      <trkpt lat="47.28291" lon="-1.56477">
        <ele>20</ele>
        <time>2011-12-18T11:26:22Z</time>
      </trkpt>
      <trkpt lat="47.28298" lon="-1.56478">
        <ele>19</ele>
        <time>2011-12-18T11:26:28Z</time>
      </trkpt>
      <trkpt lat="47.28342" lon="-1.5647">
        <ele>19</ele>
        <time>2011-12-18T11:26:37Z</time>
      </trkpt>
      <trkpt lat="47.28346" lon="-1.56471">
        <ele>19</ele>
        <time>2011-12-18T11:26:40Z</time>
      </trkpt>
      <trkpt lat="47.28347" lon="-1.56471">
        <ele>2</ele>
        <time>2011-12-18T11:26:46Z</time>
      </trkpt>
      <trkpt lat="47.28349" lon="-1.5647">
        <ele>2</ele>
        <time>2011-12-18T11:26:47Z</time>
      </trkpt>
      <trkpt lat="47.28351" lon="-1.5647">
        <ele>2</ele>
        <time>2011-12-18T11:26:54Z</time>
      </trkpt>
      <trkpt lat="47.28355" lon="-1.56467">
        <ele>2</ele>
        <time>2011-12-18T11:26:55Z</time>
      </trkpt>
      <trkpt lat="47.28357" lon="-1.56467">
        <ele>2</ele>
        <time>2011-12-18T11:26:56Z</time>
      </trkpt>
      <trkpt lat="47.28362" lon="-1.56473">
        <ele>2</ele>
        <time>2011-12-18T11:27:03Z</time>
      </trkpt>
      <trkpt lat="47.28373" lon="-1.56479">
        <ele>2</ele>
        <time>2011-12-18T11:27:04Z</time>
      </trkpt>
      <trkpt lat="47.28377" lon="-1.56479">
        <ele>2</ele>
        <time>2011-12-18T11:27:04Z</time>
      </trkpt>
      <trkpt lat="47.28393" lon="-1.56471">
        <ele>3</ele>
        <time>2011-12-18T11:27:13Z</time>
      </trkpt>
      <trkpt lat="47.28406" lon="-1.56483">
        <ele>4</ele>
        <time>2011-12-18T11:27:19Z</time>
      </trkpt>
      <trkpt lat="47.28412" lon="-1.56485">
        <ele>4</ele>
        <time>2011-12-18T11:27:26Z</time>
      </trkpt>
      <trkpt lat="47.28414" lon="-1.56487">
        <ele>4</ele>
        <time>2011-12-18T11:27:26Z</time>
      </trkpt>
      <trkpt lat="47.28415" lon="-1.56486">
        <ele>6</ele>
        <time>2011-12-18T11:27:27Z</time>
      </trkpt>
      <trkpt lat="47.28416" lon="-1.56486">
        <ele>7</ele>
        <time>2011-12-18T11:27:30Z</time>
      </trkpt>
      <trkpt lat="47.28438" lon="-1.5649">
        <ele>8</ele>
        <time>2011-12-18T11:27:59Z</time>
      </trkpt>
      <trkpt lat="47.28437" lon="-1.56492">
        <ele>8</ele>
        <time>2011-12-18T11:28:00Z</time>
      </trkpt>
      <trkpt lat="47.28442" lon="-1.56491">
        <ele>8</ele>
        <time>2011-12-18T11:28:08Z</time>
      </trkpt>
      <trkpt lat="47.28443" lon="-1.56489">
        <ele>8</ele>
        <time>2011-12-18T11:28:10Z</time>
      </trkpt>
      <trkpt lat="47.28452" lon="-1.56487">
        <ele>8</ele>
        <time>2011-12-18T11:28:15Z</time>
      </trkpt>
      <trkpt lat="47.28455" lon="-1.56488">
        <ele>9</ele>
        <time>2011-12-18T11:28:18Z</time>
      </trkpt>
      <trkpt lat="47.28458" lon="-1.56487">
        <ele>10</ele>
        <time>2011-12-18T11:28:23Z</time>
      </trkpt>
      <trkpt lat="47.28465" lon="-1.56489">
        <ele>12</ele>
        <time>2011-12-18T11:28:25Z</time>
      </trkpt>
      <trkpt lat="47.28468" lon="-1.56488">
        <ele>13</ele>
        <time>2011-12-18T11:28:29Z</time>
      </trkpt>
      <trkpt lat="47.28471" lon="-1.56484">
        <ele>14</ele>
        <time>2011-12-18T11:28:30Z</time>
      </trkpt>
      <trkpt lat="47.28471" lon="-1.56482">
        <ele>16</ele>
        <time>2011-12-18T11:28:33Z</time>
      </trkpt>
      <trkpt lat="47.28472" lon="-1.56481">
        <ele>18</ele>
        <time>2011-12-18T11:28:39Z</time>
      </trkpt>
      <trkpt lat="47.28474" lon="-1.56479">
        <ele>19</ele>
        <time>2011-12-18T11:28:41Z</time>
      </trkpt>
      <trkpt lat="47.28476" lon="-1.56479">
        <ele>19</ele>
        <time>2011-12-18T11:28:47Z</time>
      </trkpt>
      <trkpt lat="47.28482" lon="-1.56473">
        <ele>19</ele>
        <time>2011-12-18T11:28:49Z</time>
      </trkpt>
      <trkpt lat="47.28483" lon="-1.56471">
        <ele>19</ele>
        <time>2011-12-18T11:28:56Z</time>
      </trkpt>
      <trkpt lat="47.28483" lon="-1.56472">
        <ele>18</ele>
        <time>2011-12-18T11:29:03Z</time>
      </trkpt>
      <trkpt lat="47.28485" lon="-1.56468">
        <ele>18</ele>
        <time>2011-12-18T11:29:14Z</time>
      </trkpt>
      <trkpt lat="47.28488" lon="-1.56466">
        <ele>18</ele>
        <time>2011-12-18T11:29:20Z</time>
      </trkpt>
      <trkpt lat="47.28502" lon="-1.56467">
        <ele>18</ele>
        <time>2011-12-18T11:29:22Z</time>
      </trkpt>
      <trkpt lat="47.28509" lon="-1.5647">
        <ele>18</ele>
        <time>2011-12-18T11:29:28Z</time>
      </trkpt>
      <trkpt lat="47.28518" lon="-1.56469">
        <ele>18</ele>
        <time>2011-12-18T11:29:29Z</time>
      </trkpt>
      <trkpt lat="47.2852" lon="-1.56471">
        <ele>18</ele>
        <time>2011-12-18T11:29:31Z</time>
      </trkpt>
      <trkpt lat="47.28531" lon="-1.56476">
        <ele>18</ele>
        <time>2011-12-18T11:29:36Z</time>
      </trkpt>
      <trkpt lat="47.28547" lon="-1.56489">
        <ele>18</ele>
        <time>2011-12-18T11:29:37Z</time>
      </trkpt>
      <trkpt lat="47.28558" lon="-1.56513">
        <ele>18</ele>
        <time>2011-12-18T11:29:42Z</time>
      </trkpt>
      <trkpt lat="47.28556" lon="-1.56524">
        <ele>18</ele>
        <time>2011-12-18T11:29:44Z</time>
      </trkpt>
      <trkpt lat="47.28556" lon="-1.56532">
        <ele>18</ele>
        <time>2011-12-18T11:29:49Z</time>
      </trkpt>
      <trkpt lat="47.28564" lon="-1.56545">
        <ele>17</ele>
        <time>2011-12-18T11:29:51Z</time>
      </trkpt>
      <trkpt lat="47.28558" lon="-1.566">
        <ele>12</ele>
        <time>2011-12-18T11:30:04Z</time>
      </trkpt>
      <trkpt lat="47.28565" lon="-1.56617">
        <ele>11</ele>
        <time>2011-12-18T11:30:05Z</time>
      </trkpt>
      <trkpt lat="47.28568" lon="-1.56618">
        <ele>10</ele>
        <time>2011-12-18T11:30:06Z</time>
      </trkpt>
      <trkpt lat="47.28582" lon="-1.56643">
        <ele>6</ele>
        <time>2011-12-18T11:30:20Z</time>
      </trkpt>
      <trkpt lat="47.28584" lon="-1.56649">
        <ele>6</ele>
        <time>2011-12-18T11:30:20Z</time>
      </trkpt>
      <trkpt lat="47.28586" lon="-1.56651">
        <ele>5</ele>
        <time>2011-12-18T11:30:22Z</time>
      </trkpt>
      <trkpt lat="47.28614" lon="-1.56661">
        <ele>4</ele>
        <time>2011-12-18T11:30:36Z</time>
      </trkpt>
      <trkpt lat="47.2863" lon="-1.56672">
        <ele>4</ele>
        <time>2011-12-18T11:30:42Z</time>
      </trkpt>
      <trkpt lat="47.28641" lon="-1.56676">
        <ele>2</ele>
        <time>2011-12-18T11:30:48Z</time>
      </trkpt>
      <trkpt lat="47.28658" lon="-1.56675">
        <ele>1</ele>
        <time>2011-12-18T11:30:49Z</time>
      </trkpt>
      <trkpt lat="47.28674" lon="-1.56667">
        <ele>14</ele>
        <time>2011-12-18T11:30:56Z</time>
      </trkpt>
      <trkpt lat="47.28686" lon="-1.56675">
        <ele>13</ele>
        <time>2011-12-18T11:30:56Z</time>
      </trkpt>
      <trkpt lat="47.28729" lon="-1.5672">
        <ele>13</ele>
        <time>2011-12-18T11:31:11Z</time>
      </trkpt>
      <trkpt lat="47.28782" lon="-1.56751">
        <ele>14</ele>
        <time>2011-12-18T11:31:24Z</time>
      </trkpt>
      <trkpt lat="47.28824" lon="-1.5676">
        <ele>15</ele>
        <time>2011-12-18T11:31:37Z</time>
      </trkpt>
      <trkpt lat="47.28834" lon="-1.56756">
        <ele>15</ele>
        <time>2011-12-18T11:31:37Z</time>
      </trkpt>
      <trkpt lat="47.28836" lon="-1.56753">
        <ele>15</ele>
        <time>2011-12-18T11:31:40Z</time>
      </trkpt>
      <trkpt lat="47.28837" lon="-1.56751">
        <ele>15</ele>
        <time>2011-12-18T11:31:44Z</time>
      </trkpt>
      <trkpt lat="47.28837" lon="-1.56749">
        <ele>15</ele>
        <time>2011-12-18T11:31:48Z</time>
      </trkpt>
      <trkpt lat="47.28836" lon="-1.56744">
        <ele>15</ele>
        <time>2011-12-18T11:31:54Z</time>
      </trkpt>
      <trkpt lat="47.28837" lon="-1.56743">
        <ele>15</ele>
        <time>2011-12-18T11:31:55Z</time>
      </trkpt>
      <trkpt lat="47.28839" lon="-1.56741">
        <ele>15</ele>
        <time>2011-12-18T11:31:57Z</time>
      </trkpt>
      <trkpt lat="47.28839" lon="-1.56739">
        <ele>15</ele>
        <time>2011-12-18T11:32:02Z</time>
      </trkpt>
      <trkpt lat="47.28841" lon="-1.56738">
        <ele>15</ele>
        <time>2011-12-18T11:32:03Z</time>
      </trkpt>
      <trkpt lat="47.28841" lon="-1.56736">
        <ele>1</ele>
        <time>2011-12-18T11:32:04Z</time>
      </trkpt>
      <trkpt lat="47.2884" lon="-1.5672">
        <ele>3</ele>
        <time>2011-12-18T11:32:16Z</time>
      </trkpt>
      <trkpt lat="47.28841" lon="-1.56714">
        <ele>4</ele>
        <time>2011-12-18T11:32:16Z</time>
      </trkpt>
      <trkpt lat="47.28841" lon="-1.56712">
        <ele>5</ele>
        <time>2011-12-18T11:32:17Z</time>
      </trkpt>
      <trkpt lat="47.28843" lon="-1.56676">
        <ele>10</ele>
        <time>2011-12-18T11:32:31Z</time>
      </trkpt>
      <trkpt lat="47.28842" lon="-1.56671">
        <ele>12</ele>
        <time>2011-12-18T11:32:37Z</time>
      </trkpt>
      <trkpt lat="47.28844" lon="-1.56651">
        <ele>16</ele>
        <time>2011-12-18T11:32:46Z</time>
      </trkpt>
      <trkpt lat="47.28848" lon="-1.56634">
        <ele>18</ele>
        <time>2011-12-18T11:32:51Z</time>
      </trkpt>
      <trkpt lat="47.28864" lon="-1.56604">
        <ele>19</ele>
        <time>2011-12-18T11:33:00Z</time>
      </trkpt>
      <trkpt lat="47.28864" lon="-1.56602">
        <ele>19</ele>
        <time>2011-12-18T11:33:01Z</time>
      </trkpt>
      <trkpt lat="47.28866" lon="-1.56596">
        <ele>19</ele>
        <time>2011-12-18T11:33:07Z</time>
      </trkpt>
      <trkpt lat="47.28867" lon="-1.5659">
        <ele>19</ele>
        <time>2011-12-18T11:33:07Z</time>
      </trkpt>
      <trkpt lat="47.28867" lon="-1.56587">
        <ele>20</ele>
        <time>2011-12-18T11:33:08Z</time>
      </trkpt>
      <trkpt lat="47.2887" lon="-1.56579">
        <ele>22</ele>
        <time>2011-12-18T11:33:11Z</time>
      </trkpt>
      <trkpt lat="47.28875" lon="-1.56563">
        <ele>22</ele>
        <time>2011-12-18T11:33:16Z</time>
      </trkpt>
      <trkpt lat="47.28877" lon="-1.56561">
        <ele>22</ele>
        <time>2011-12-18T11:33:17Z</time>
      </trkpt>
      <trkpt lat="47.28881" lon="-1.56546">
        <ele>22</ele>
        <time>2011-12-18T11:33:26Z</time>
      </trkpt>
      <trkpt lat="47.2888" lon="-1.56544">
        <ele>22</ele>
        <time>2011-12-18T11:33:32Z</time>
      </trkpt>
      <trkpt lat="47.28881" lon="-1.56542">
        <ele>22</ele>
        <time>2011-12-18T11:33:33Z</time>
      </trkpt>
      <trkpt lat="47.28881" lon="-1.56537">
        <ele>22</ele>
        <time>2011-12-18T11:33:43Z</time>
      </trkpt>
      <trkpt lat="47.28888" lon="-1.56523">
        <ele>22</ele>
        <time>2011-12-18T11:33:50Z</time>
      </trkpt>
      <trkpt lat="47.28946" lon="-1.56464">
        <ele>25</ele>
        <time>2011-12-18T11:34:16Z</time>
      </trkpt>
      <trkpt lat="47.28964" lon="-1.56458">
        <ele>25</ele>
        <time>2011-12-18T11:34:18Z</time>
      </trkpt>
      <trkpt lat="47.29042" lon="-1.56453">
        <ele>25</ele>
        <time>2011-12-18T11:34:37Z</time>
      </trkpt>
      <trkpt lat="47.29049" lon="-1.56455">
        <ele>25</ele>
        <time>2011-12-18T11:34:42Z</time>
      </trkpt>
      <trkpt lat="47.29078" lon="-1.56488">
        <ele>25</ele>
        <time>2011-12-18T11:34:51Z</time>
      </trkpt>
      <trkpt lat="47.29083" lon="-1.56498">
        <ele>25</ele>
        <time>2011-12-18T11:34:51Z</time>
      </trkpt>
      <trkpt lat="47.29084" lon="-1.56502">
        <ele>25</ele>
        <time>2011-12-18T11:34:52Z</time>
      </trkpt>
      <trkpt lat="47.29135" lon="-1.5662">
        <ele>20</ele>
        <time>2011-12-18T11:35:20Z</time>
      </trkpt>
      <trkpt lat="47.29143" lon="-1.56627">
        <ele>20</ele>
        <time>2011-12-18T11:35:27Z</time>
      </trkpt>
      <trkpt lat="47.29158" lon="-1.56636">
        <ele>20</ele>
        <time>2011-12-18T11:35:34Z</time>
      </trkpt>
      <trkpt lat="47.29164" lon="-1.56636">
        <ele>20</ele>
        <time>2011-12-18T11:35:34Z</time>
      </trkpt>
      <trkpt lat="47.29196" lon="-1.56629">
        <ele>16</ele>
        <time>2011-12-18T11:35:48Z</time>
      </trkpt>
      <trkpt lat="47.29214" lon="-1.56629">
        <ele>16</ele>
        <time>2011-12-18T11:35:55Z</time>
      </trkpt>
      <trkpt lat="47.29225" lon="-1.56636">
        <ele>16</ele>
        <time>2011-12-18T11:35:55Z</time>
      </trkpt>
      <trkpt lat="47.29235" lon="-1.56653">
        <ele>14</ele>
        <time>2011-12-18T11:36:02Z</time>
      </trkpt>
      <trkpt lat="47.29259" lon="-1.56743">
        <ele>9</ele>
        <time>2011-12-18T11:36:16Z</time>
      </trkpt>
      <trkpt lat="47.29263" lon="-1.56774">
        <ele>9</ele>
        <time>2011-12-18T11:36:23Z</time>
      </trkpt>
      <trkpt lat="47.29268" lon="-1.5679">
        <ele>9</ele>
        <time>2011-12-18T11:36:30Z</time>
      </trkpt>
      <trkpt lat="47.29293" lon="-1.5698">
        <ele>20</ele>
        <time>2011-12-18T11:37:06Z</time>
      </trkpt>
      <trkpt lat="47.29318" lon="-1.57051">
        <ele>20</ele>
        <time>2011-12-18T11:37:24Z</time>
      </trkpt>
      <trkpt lat="47.29329" lon="-1.57135">
        <ele>23</ele>
        <time>2011-12-18T11:37:32Z</time>
      </trkpt>
      <trkpt lat="47.2921" lon="-1.57682">
        <ele>12</ele>
        <time>2011-12-18T11:38:53Z</time>
      </trkpt>
      <trkpt lat="47.2921" lon="-1.57686">
        <ele>11</ele>
        <time>2011-12-18T11:38:54Z</time>
      </trkpt>
      <trkpt lat="47.29207" lon="-1.57694">
        <ele>11</ele>
        <time>2011-12-18T11:39:00Z</time>
      </trkpt>
      <trkpt lat="47.29207" lon="-1.57707">
        <ele>11</ele>
        <time>2011-12-18T11:39:00Z</time>
      </trkpt>
      <trkpt lat="47.29209" lon="-1.57708">
        <ele>11</ele>
        <time>2011-12-18T11:39:02Z</time>
      </trkpt>
      <trkpt lat="47.29213" lon="-1.57714">
        <ele>11</ele>
        <time>2011-12-18T11:39:08Z</time>
      </trkpt>
      <trkpt lat="47.29238" lon="-1.57822">
        <ele>11</ele>
        <time>2011-12-18T11:39:36Z</time>
      </trkpt>
      <trkpt lat="47.29239" lon="-1.57824">
        <ele>11</ele>
        <time>2011-12-18T11:39:37Z</time>
      </trkpt>
      <trkpt lat="47.29241" lon="-1.57825">
        <ele>11</ele>
        <time>2011-12-18T11:39:38Z</time>
      </trkpt>
      <trkpt lat="47.29248" lon="-1.57835">
        <ele>12</ele>
        <time>2011-12-18T11:39:46Z</time>
      </trkpt>
      <trkpt lat="47.2925" lon="-1.57835">
        <ele>13</ele>
        <time>2011-12-18T11:39:46Z</time>
      </trkpt>
      <trkpt lat="47.29254" lon="-1.57842">
        <ele>14</ele>
        <time>2011-12-18T11:39:52Z</time>
      </trkpt>
      <trkpt lat="47.29256" lon="-1.57842">
        <ele>16</ele>
        <time>2011-12-18T11:39:55Z</time>
      </trkpt>
      <trkpt lat="47.29259" lon="-1.5785">
        <ele>17</ele>
        <time>2011-12-18T11:40:00Z</time>
      </trkpt>
      <trkpt lat="47.29261" lon="-1.57851">
        <ele>19</ele>
        <time>2011-12-18T11:40:02Z</time>
      </trkpt>
      <trkpt lat="47.29266" lon="-1.57866">
        <ele>19</ele>
        <time>2011-12-18T11:40:15Z</time>
      </trkpt>
      <trkpt lat="47.29268" lon="-1.57868">
        <ele>21</ele>
        <time>2011-12-18T11:40:17Z</time>
      </trkpt>
      <trkpt lat="47.29276" lon="-1.57884">
        <ele>25</ele>
        <time>2011-12-18T11:40:25Z</time>
      </trkpt>
      <trkpt lat="47.29284" lon="-1.57895">
        <ele>27</ele>
        <time>2011-12-18T11:40:31Z</time>
      </trkpt>
      <trkpt lat="47.29285" lon="-1.57897">
        <ele>28</ele>
        <time>2011-12-18T11:40:32Z</time>
      </trkpt>
      <trkpt lat="47.29342" lon="-1.58031">
        <ele>30</ele>
        <time>2011-12-18T11:41:20Z</time>
      </trkpt>
      <trkpt lat="47.29344" lon="-1.58034">
        <ele>30</ele>
        <time>2011-12-18T11:41:21Z</time>
      </trkpt>
      <trkpt lat="47.29346" lon="-1.58036">
        <ele>30</ele>
        <time>2011-12-18T11:41:22Z</time>
      </trkpt>
      <trkpt lat="47.29354" lon="-1.58039">
        <ele>30</ele>
        <time>2011-12-18T11:41:28Z</time>
      </trkpt>
      <trkpt lat="47.2938" lon="-1.58042">
        <ele>29</ele>
        <time>2011-12-18T11:41:35Z</time>
      </trkpt>
      <trkpt lat="47.2938" lon="-1.58041">
        <ele>26</ele>
        <time>2011-12-18T11:41:59Z</time>
      </trkpt>
      <trkpt lat="47.29381" lon="-1.58039">
        <ele>26</ele>
        <time>2011-12-18T11:42:20Z</time>
      </trkpt>
      <trkpt lat="47.29383" lon="-1.58039">
        <ele>26</ele>
        <time>2011-12-18T11:42:26Z</time>
      </trkpt>
      <trkpt lat="47.29386" lon="-1.5804">
        <ele>26</ele>
        <time>2011-12-18T11:42:27Z</time>
      </trkpt>
      <trkpt lat="47.29387" lon="-1.58042">
        <ele>28</ele>
        <time>2011-12-18T11:42:34Z</time>
      </trkpt>
      <trkpt lat="47.29385" lon="-1.58043">
        <ele>29</ele>
        <time>2011-12-18T11:42:42Z</time>
      </trkpt>
      <trkpt lat="47.29384" lon="-1.58043">
        <ele>29</ele>
        <time>2011-12-18T11:42:50Z</time>
      </trkpt>
      <trkpt lat="47.29382" lon="-1.5804">
        <ele>29</ele>
        <time>2011-12-18T11:42:58Z</time>
      </trkpt>
      <trkpt lat="47.29401" lon="-1.58078">
        <ele>29</ele>
        <time>2011-12-18T11:43:15Z</time>
      </trkpt>
      <trkpt lat="47.29425" lon="-1.58178">
        <ele>29</ele>
        <time>2011-12-18T11:43:34Z</time>
      </trkpt>
      <trkpt lat="47.29418" lon="-1.58214">
        <ele>29</ele>
        <time>2011-12-18T11:43:42Z</time>
      </trkpt>
      <trkpt lat="47.29449" lon="-1.58349">
        <ele>33</ele>
        <time>2011-12-18T11:44:11Z</time>
      </trkpt>
      <trkpt lat="47.29453" lon="-1.58362">
        <ele>33</ele>
        <time>2011-12-18T11:44:17Z</time>
      </trkpt>
      <trkpt lat="47.29453" lon="-1.58374">
        <ele>33</ele>
        <time>2011-12-18T11:44:17Z</time>
      </trkpt>
      <trkpt lat="47.2945" lon="-1.58382">
        <ele>33</ele>
        <time>2011-12-18T11:44:20Z</time>
      </trkpt>
      <trkpt lat="47.29448" lon="-1.58385">
        <ele>33</ele>
        <time>2011-12-18T11:44:20Z</time>
      </trkpt>
      <trkpt lat="47.29436" lon="-1.58412">
        <ele>33</ele>
        <time>2011-12-18T11:44:26Z</time>
      </trkpt>
      <trkpt lat="47.29433" lon="-1.58429">
        <ele>33</ele>
        <time>2011-12-18T11:44:33Z</time>
      </trkpt>
      <trkpt lat="47.29453" lon="-1.58659">
        <ele>33</ele>
        <time>2011-12-18T11:45:18Z</time>
      </trkpt>
      <trkpt lat="47.29449" lon="-1.58691">
        <ele>33</ele>
        <time>2011-12-18T11:45:25Z</time>
      </trkpt>
      <trkpt lat="47.29456" lon="-1.58761">
        <ele>33</ele>
        <time>2011-12-18T11:45:44Z</time>
      </trkpt>
      <trkpt lat="47.29446" lon="-1.58813">
        <ele>33</ele>
        <time>2011-12-18T11:45:53Z</time>
      </trkpt>
      <trkpt lat="47.29464" lon="-1.58958">
        <ele>35</ele>
        <time>2011-12-18T11:46:33Z</time>
      </trkpt>
      <trkpt lat="47.2946" lon="-1.58998">
        <ele>39</ele>
        <time>2011-12-18T11:46:40Z</time>
      </trkpt>
      <trkpt lat="47.29438" lon="-1.59047">
        <ele>41</ele>
        <time>2011-12-18T11:46:49Z</time>
      </trkpt>
      <trkpt lat="47.29433" lon="-1.59052">
        <ele>41</ele>
        <time>2011-12-18T11:46:51Z</time>
      </trkpt>
      <trkpt lat="47.29413" lon="-1.59079">
        <ele>41</ele>
        <time>2011-12-18T11:46:59Z</time>
      </trkpt>
      <trkpt lat="47.29404" lon="-1.59111">
        <ele>41</ele>
        <time>2011-12-18T11:47:05Z</time>
      </trkpt>
      <trkpt lat="47.29383" lon="-1.59138">
        <ele>41</ele>
        <time>2011-12-18T11:47:14Z</time>
      </trkpt>
      <trkpt lat="47.29372" lon="-1.59166">
        <ele>41</ele>
        <time>2011-12-18T11:47:21Z</time>
      </trkpt>
      <trkpt lat="47.29371" lon="-1.59172">
        <ele>41</ele>
        <time>2011-12-18T11:47:26Z</time>
      </trkpt>
      <trkpt lat="47.29383" lon="-1.59206">
        <ele>43</ele>
        <time>2011-12-18T11:47:34Z</time>
      </trkpt>
      <trkpt lat="47.29396" lon="-1.59352">
        <ele>52</ele>
        <time>2011-12-18T11:48:16Z</time>
      </trkpt>
      <trkpt lat="47.29398" lon="-1.59442">
        <ele>53</ele>
        <time>2011-12-18T11:48:32Z</time>
      </trkpt>
      <trkpt lat="47.29441" lon="-1.60225">
        <ele>53</ele>
        <time>2011-12-18T11:50:43Z</time>
      </trkpt>
      <trkpt lat="47.29439" lon="-1.60229">
        <ele>53</ele>
        <time>2011-12-18T11:50:44Z</time>
      </trkpt>
      <trkpt lat="47.29291" lon="-1.60453">
        <ele>53</ele>
        <time>2011-12-18T11:51:26Z</time>
      </trkpt>
      <trkpt lat="47.29232" lon="-1.60492">
        <ele>53</ele>
        <time>2011-12-18T11:51:40Z</time>
      </trkpt>
      <trkpt lat="47.29078" lon="-1.60785">
        <ele>56</ele>
        <time>2011-12-18T11:52:31Z</time>
      </trkpt>
      <trkpt lat="47.29075" lon="-1.60792">
        <ele>56</ele>
        <time>2011-12-18T11:52:33Z</time>
      </trkpt>
      <trkpt lat="47.28964" lon="-1.60972">
        <ele>57</ele>
        <time>2011-12-18T11:53:21Z</time>
      </trkpt>
      <trkpt lat="47.28964" lon="-1.60996">
        <ele>57</ele>
        <time>2011-12-18T11:53:22Z</time>
      </trkpt>
      <trkpt lat="47.29091" lon="-1.61132">
        <ele>56</ele>
        <time>2011-12-18T11:53:51Z</time>
      </trkpt>
      <trkpt lat="47.29268" lon="-1.61484">
        <ele>56</ele>
        <time>2011-12-18T11:54:42Z</time>
      </trkpt>
      <trkpt lat="47.2927" lon="-1.61496">
        <ele>56</ele>
        <time>2011-12-18T11:54:48Z</time>
      </trkpt>
      <trkpt lat="47.29159" lon="-1.61657">
        <ele>56</ele>
        <time>2011-12-18T11:55:18Z</time>
      </trkpt>
      <trkpt lat="47.29102" lon="-1.61791">
        <ele>57</ele>
        <time>2011-12-18T11:55:47Z</time>
      </trkpt>
      <trkpt lat="47.29076" lon="-1.61914">
        <ele>57</ele>
        <time>2011-12-18T11:56:09Z</time>
      </trkpt>
      <trkpt lat="47.29069" lon="-1.61939">
        <ele>57</ele>
        <time>2011-12-18T11:56:09Z</time>
      </trkpt>
      <trkpt lat="47.29066" lon="-1.61944">
        <ele>57</ele>
        <time>2011-12-18T11:56:10Z</time>
      </trkpt>
      <trkpt lat="47.29002" lon="-1.62">
        <ele>57</ele>
        <time>2011-12-18T11:56:26Z</time>
      </trkpt>
      <trkpt lat="47.28916" lon="-1.6202">
        <ele>50</ele>
        <time>2011-12-18T11:56:44Z</time>
      </trkpt>
      <trkpt lat="47.28837" lon="-1.62067">
        <ele>44</ele>
        <time>2011-12-18T11:57:01Z</time>
      </trkpt>
      <trkpt lat="47.28833" lon="-1.62072">
        <ele>44</ele>
        <time>2011-12-18T11:57:03Z</time>
      </trkpt>
      <trkpt lat="47.28813" lon="-1.62128">
        <ele>41</ele>
        <time>2011-12-18T11:57:15Z</time>
      </trkpt>
      <trkpt lat="47.28786" lon="-1.62193">
        <ele>45</ele>
        <time>2011-12-18T11:57:32Z</time>
      </trkpt>
      <trkpt lat="47.28784" lon="-1.62197">
        <ele>46</ele>
        <time>2011-12-18T11:57:33Z</time>
      </trkpt>
      <trkpt lat="47.28778" lon="-1.62221">
        <ele>49</ele>
        <time>2011-12-18T11:57:39Z</time>
      </trkpt>
      <trkpt lat="47.28778" lon="-1.62319">
        <ele>56</ele>
        <time>2011-12-18T11:58:04Z</time>
      </trkpt>
      <trkpt lat="47.28758" lon="-1.62356">
        <ele>55</ele>
        <time>2011-12-18T11:58:22Z</time>
      </trkpt>
      <trkpt lat="47.28757" lon="-1.62356">
        <ele>54</ele>
        <time>2011-12-18T11:58:23Z</time>
      </trkpt>
      <trkpt lat="47.28762" lon="-1.62352">
        <ele>53</ele>
        <time>2011-12-18T11:58:30Z</time>
      </trkpt>
      <trkpt lat="47.28763" lon="-1.62352">
        <ele>53</ele>
        <time>2011-12-18T11:58:31Z</time>
      </trkpt>
      <trkpt lat="47.28769" lon="-1.62345">
        <ele>53</ele>
        <time>2011-12-18T11:58:36Z</time>
      </trkpt>
      <trkpt lat="47.28785" lon="-1.62306">
        <ele>53</ele>
        <time>2011-12-18T11:58:48Z</time>
      </trkpt>
      <trkpt lat="47.2878" lon="-1.62237">
        <ele>51</ele>
        <time>2011-12-18T11:59:07Z</time>
      </trkpt>
      <trkpt lat="47.28782" lon="-1.62234">
        <ele>50</ele>
        <time>2011-12-18T11:59:08Z</time>
      </trkpt>
      <trkpt lat="47.28787" lon="-1.62228">
        <ele>48</ele>
        <time>2011-12-18T11:59:10Z</time>
      </trkpt>
      <trkpt lat="47.28801" lon="-1.62225">
        <ele>47</ele>
        <time>2011-12-18T11:59:15Z</time>
      </trkpt>
      <trkpt lat="47.28807" lon="-1.62226">
        <ele>46</ele>
        <time>2011-12-18T11:59:21Z</time>
      </trkpt>
      <trkpt lat="47.28814" lon="-1.62229">
        <ele>46</ele>
        <time>2011-12-18T11:59:23Z</time>
      </trkpt>
      <trkpt lat="47.28817" lon="-1.62229">
        <ele>46</ele>
        <time>2011-12-18T11:59:24Z</time>
      </trkpt>
      <trkpt lat="47.28926" lon="-1.62273">
        <ele>54</ele>
        <time>2011-12-18T11:59:53Z</time>
      </trkpt>
      <trkpt lat="47.28929" lon="-1.62276">
        <ele>55</ele>
        <time>2011-12-18T11:59:54Z</time>
      </trkpt>
      <trkpt lat="47.28931" lon="-1.6228">
        <ele>56</ele>
        <time>2011-12-18T11:59:55Z</time>
      </trkpt>
      <trkpt lat="47.28936" lon="-1.62285">
        <ele>57</ele>
        <time>2011-12-18T12:00:01Z</time>
      </trkpt>
      <trkpt lat="47.28961" lon="-1.6229">
        <ele>59</ele>
        <time>2011-12-18T12:00:03Z</time>
      </trkpt>
      <trkpt lat="47.29001" lon="-1.6231">
        <ele>62</ele>
        <time>2011-12-18T12:00:16Z</time>
      </trkpt>
      <trkpt lat="47.29007" lon="-1.6231">
        <ele>62</ele>
        <time>2011-12-18T12:00:20Z</time>
      </trkpt>
      <trkpt lat="47.29018" lon="-1.62308">
        <ele>62</ele>
        <time>2011-12-18T12:00:21Z</time>
      </trkpt>
      <trkpt lat="47.29022" lon="-1.62308">
        <ele>62</ele>
        <time>2011-12-18T12:00:22Z</time>
      </trkpt>
      <trkpt lat="47.2903" lon="-1.62313">
        <ele>62</ele>
        <time>2011-12-18T12:00:26Z</time>
      </trkpt>
      <trkpt lat="47.29035" lon="-1.62331">
        <ele>62</ele>
        <time>2011-12-18T12:00:28Z</time>
      </trkpt>
      <trkpt lat="47.29022" lon="-1.6248">
        <ele>56</ele>
        <time>2011-12-18T12:00:56Z</time>
      </trkpt>
      <trkpt lat="47.29017" lon="-1.62489">
        <ele>56</ele>
        <time>2011-12-18T12:01:01Z</time>
      </trkpt>
      <trkpt lat="47.28981" lon="-1.62514">
        <ele>56</ele>
        <time>2011-12-18T12:01:19Z</time>
      </trkpt>
      <trkpt lat="47.28979" lon="-1.62514">
        <ele>56</ele>
        <time>2011-12-18T12:01:20Z</time>
      </trkpt>
      <trkpt lat="47.28978" lon="-1.62515">
        <ele>56</ele>
        <time>2011-12-18T12:01:21Z</time>
      </trkpt>
      <trkpt lat="47.28948" lon="-1.62534">
        <ele>53</ele>
        <time>2011-12-18T12:01:33Z</time>
      </trkpt>
      <trkpt lat="47.28937" lon="-1.62538">
        <ele>51</ele>
        <time>2011-12-18T12:01:38Z</time>
      </trkpt>
      <trkpt lat="47.28935" lon="-1.62539">
        <ele>50</ele>
        <time>2011-12-18T12:01:39Z</time>
      </trkpt>
      <trkpt lat="47.28929" lon="-1.6254">
        <ele>50</ele>
        <time>2011-12-18T12:01:44Z</time>
      </trkpt>
      <trkpt lat="47.28889" lon="-1.62568">
        <ele>50</ele>
        <time>2011-12-18T12:01:57Z</time>
      </trkpt>
      <trkpt lat="47.28885" lon="-1.62568">
        <ele>50</ele>
        <time>2011-12-18T12:01:59Z</time>
      </trkpt>
      <trkpt lat="47.28868" lon="-1.62582">
        <ele>49</ele>
        <time>2011-12-18T12:02:06Z</time>
      </trkpt>
      <trkpt lat="47.28857" lon="-1.62586">
        <ele>49</ele>
        <time>2011-12-18T12:02:11Z</time>
      </trkpt>
      <trkpt lat="47.28852" lon="-1.62586">
        <ele>49</ele>
        <time>2011-12-18T12:02:13Z</time>
      </trkpt>
      <trkpt lat="47.28837" lon="-1.62584">
        <ele>49</ele>
        <time>2011-12-18T12:02:19Z</time>
      </trkpt>
      <trkpt lat="47.28835" lon="-1.62582">
        <ele>49</ele>
        <time>2011-12-18T12:02:20Z</time>
      </trkpt>
      <trkpt lat="47.28831" lon="-1.62578">
        <ele>49</ele>
        <time>2011-12-18T12:02:24Z</time>
      </trkpt>
      <trkpt lat="47.28827" lon="-1.62569">
        <ele>49</ele>
        <time>2011-12-18T12:02:25Z</time>
      </trkpt>
      <trkpt lat="47.28824" lon="-1.62567">
        <ele>49</ele>
        <time>2011-12-18T12:02:26Z</time>
      </trkpt>
      <trkpt lat="47.28818" lon="-1.62565">
        <ele>50</ele>
        <time>2011-12-18T12:02:28Z</time>
      </trkpt>
      <trkpt lat="47.28793" lon="-1.62571">
        <ele>51</ele>
        <time>2011-12-18T12:02:39Z</time>
      </trkpt>
      <trkpt lat="47.28786" lon="-1.62574">
        <ele>51</ele>
        <time>2011-12-18T12:02:40Z</time>
      </trkpt>
      <trkpt lat="47.28779" lon="-1.62575">
        <ele>51</ele>
        <time>2011-12-18T12:02:45Z</time>
      </trkpt>
      <trkpt lat="47.28764" lon="-1.62572">
        <ele>52</ele>
        <time>2011-12-18T12:02:52Z</time>
      </trkpt>
      <trkpt lat="47.28756" lon="-1.62573">
        <ele>52</ele>
        <time>2011-12-18T12:02:53Z</time>
      </trkpt>
      <trkpt lat="47.28746" lon="-1.62566">
        <ele>52</ele>
        <time>2011-12-18T12:03:00Z</time>
      </trkpt>
      <trkpt lat="47.28576" lon="-1.62528">
        <ele>52</ele>
        <time>2011-12-18T12:03:45Z</time>
      </trkpt>
      <trkpt lat="47.28565" lon="-1.62522">
        <ele>52</ele>
        <time>2011-12-18T12:03:49Z</time>
      </trkpt>
      <trkpt lat="47.28425" lon="-1.62491">
        <ele>46</ele>
        <time>2011-12-18T12:04:09Z</time>
      </trkpt>
      <trkpt lat="47.2826" lon="-1.62541">
        <ele>41</ele>
        <time>2011-12-18T12:04:39Z</time>
      </trkpt>
      <trkpt lat="47.28215" lon="-1.62566">
        <ele>41</ele>
        <time>2011-12-18T12:04:50Z</time>
      </trkpt>
      <trkpt lat="47.28195" lon="-1.6257">
        <ele>41</ele>
        <time>2011-12-18T12:04:57Z</time>
      </trkpt>
      <trkpt lat="47.28193" lon="-1.62571">
        <ele>40</ele>
        <time>2011-12-18T12:04:59Z</time>
      </trkpt>
      <trkpt lat="47.28194" lon="-1.62573">
        <ele>39</ele>
        <time>2011-12-18T12:05:00Z</time>
      </trkpt>
      <trkpt lat="47.28191" lon="-1.62571">
        <ele>39</ele>
        <time>2011-12-18T12:05:06Z</time>
      </trkpt>
      <trkpt lat="47.28154" lon="-1.62555">
        <ele>37</ele>
        <time>2011-12-18T12:05:26Z</time>
      </trkpt>
      <trkpt lat="47.28106" lon="-1.6254">
        <ele>37</ele>
        <time>2011-12-18T12:05:44Z</time>
      </trkpt>
      <trkpt lat="47.28084" lon="-1.62531">
        <ele>37</ele>
        <time>2011-12-18T12:05:55Z</time>
      </trkpt>
      <trkpt lat="47.28026" lon="-1.62523">
        <ele>37</ele>
        <time>2011-12-18T12:06:15Z</time>
      </trkpt>
      <trkpt lat="47.27979" lon="-1.62509">
        <ele>38</ele>
        <time>2011-12-18T12:06:33Z</time>
      </trkpt>
      <trkpt lat="47.27975" lon="-1.62504">
        <ele>38</ele>
        <time>2011-12-18T12:06:37Z</time>
      </trkpt>
      <trkpt lat="47.27954" lon="-1.62461">
        <ele>38</ele>
        <time>2011-12-18T12:06:45Z</time>
      </trkpt>
      <trkpt lat="47.27949" lon="-1.62454">
        <ele>38</ele>
        <time>2011-12-18T12:06:47Z</time>
      </trkpt>
      <trkpt lat="47.27891" lon="-1.62438">
        <ele>36</ele>
        <time>2011-12-18T12:06:58Z</time>
      </trkpt>
      <trkpt lat="47.27876" lon="-1.62424">
        <ele>35</ele>
        <time>2011-12-18T12:07:05Z</time>
      </trkpt>
      <trkpt lat="47.27874" lon="-1.6242">
        <ele>33</ele>
        <time>2011-12-18T12:07:14Z</time>
      </trkpt>
      <trkpt lat="47.27877" lon="-1.62418">
        <ele>33</ele>
        <time>2011-12-18T12:07:20Z</time>
      </trkpt>
      <trkpt lat="47.27883" lon="-1.62418">
        <ele>32</ele>
        <time>2011-12-18T12:07:21Z</time>
      </trkpt>
      <trkpt lat="47.27921" lon="-1.62405">
        <ele>32</ele>
        <time>2011-12-18T12:07:34Z</time>
      </trkpt>
      <trkpt lat="47.27954" lon="-1.62382">
        <ele>32</ele>
        <time>2011-12-18T12:07:44Z</time>
      </trkpt>
      <trkpt lat="47.27963" lon="-1.62362">
        <ele>32</ele>
        <time>2011-12-18T12:07:45Z</time>
      </trkpt>
      <trkpt lat="47.27963" lon="-1.62356">
        <ele>32</ele>
        <time>2011-12-18T12:07:46Z</time>
      </trkpt>
      <trkpt lat="47.27962" lon="-1.62347">
        <ele>32</ele>
        <time>2011-12-18T12:07:48Z</time>
      </trkpt>
      <trkpt lat="47.27952" lon="-1.62323">
        <ele>32</ele>
        <time>2011-12-18T12:07:54Z</time>
      </trkpt>
      <trkpt lat="47.27937" lon="-1.62268">
        <ele>28</ele>
        <time>2011-12-18T12:08:06Z</time>
      </trkpt>
      <trkpt lat="47.27954" lon="-1.62152">
        <ele>34</ele>
        <time>2011-12-18T12:08:32Z</time>
      </trkpt>
      <trkpt lat="47.27964" lon="-1.62127">
        <ele>36</ele>
        <time>2011-12-18T12:08:37Z</time>
      </trkpt>
      <trkpt lat="47.2797" lon="-1.6212">
        <ele>36</ele>
        <time>2011-12-18T12:08:39Z</time>
      </trkpt>
      <trkpt lat="47.28019" lon="-1.62083">
        <ele>37</ele>
        <time>2011-12-18T12:08:55Z</time>
      </trkpt>
      <trkpt lat="47.28043" lon="-1.62049">
        <ele>40</ele>
        <time>2011-12-18T12:09:03Z</time>
      </trkpt>
      <trkpt lat="47.28045" lon="-1.62045">
        <ele>41</ele>
        <time>2011-12-18T12:09:04Z</time>
      </trkpt>
      <trkpt lat="47.28064" lon="-1.61995">
        <ele>42</ele>
        <time>2011-12-18T12:09:16Z</time>
      </trkpt>
      <trkpt lat="47.28104" lon="-1.61929">
        <ele>47</ele>
        <time>2011-12-18T12:09:34Z</time>
      </trkpt>
      <trkpt lat="47.28139" lon="-1.61886">
        <ele>49</ele>
        <time>2011-12-18T12:09:50Z</time>
      </trkpt>
      <trkpt lat="47.2814" lon="-1.61879">
        <ele>49</ele>
        <time>2011-12-18T12:09:51Z</time>
      </trkpt>
      <trkpt lat="47.28137" lon="-1.61862">
        <ele>49</ele>
        <time>2011-12-18T12:09:57Z</time>
      </trkpt>
      <trkpt lat="47.28121" lon="-1.61836">
        <ele>50</ele>
        <time>2011-12-18T12:10:00Z</time>
      </trkpt>
      <trkpt lat="47.28054" lon="-1.61692">
        <ele>44</ele>
        <time>2011-12-18T12:10:28Z</time>
      </trkpt>
      <trkpt lat="47.28042" lon="-1.6169">
        <ele>44</ele>
        <time>2011-12-18T12:10:29Z</time>
      </trkpt>
      <trkpt lat="47.28034" lon="-1.61694">
        <ele>44</ele>
        <time>2011-12-18T12:10:32Z</time>
      </trkpt>
      <trkpt lat="47.28022" lon="-1.61691">
        <ele>44</ele>
        <time>2011-12-18T12:10:36Z</time>
      </trkpt>
      <trkpt lat="47.28013" lon="-1.61675">
        <ele>44</ele>
        <time>2011-12-18T12:10:37Z</time>
      </trkpt>
      <trkpt lat="47.27962" lon="-1.61503">
        <ele>44</ele>
        <time>2011-12-18T12:11:10Z</time>
      </trkpt>
      <trkpt lat="47.27961" lon="-1.61502">
        <ele>44</ele>
        <time>2011-12-18T12:11:18Z</time>
      </trkpt>
      <trkpt lat="47.27959" lon="-1.61503">
        <ele>44</ele>
        <time>2011-12-18T12:11:26Z</time>
      </trkpt>
      <trkpt lat="47.27947" lon="-1.6149">
        <ele>45</ele>
        <time>2011-12-18T12:11:41Z</time>
      </trkpt>
      <trkpt lat="47.27935" lon="-1.61482">
        <ele>45</ele>
        <time>2011-12-18T12:11:46Z</time>
      </trkpt>
      <trkpt lat="47.27918" lon="-1.61482">
        <ele>45</ele>
        <time>2011-12-18T12:11:54Z</time>
      </trkpt>
      <trkpt lat="47.27916" lon="-1.61485">
        <ele>46</ele>
        <time>2011-12-18T12:12:17Z</time>
      </trkpt>
      <trkpt lat="47.27913" lon="-1.61485">
        <ele>46</ele>
        <time>2011-12-18T12:12:23Z</time>
      </trkpt>
      <trkpt lat="47.279" lon="-1.61497">
        <ele>46</ele>
        <time>2011-12-18T12:12:30Z</time>
      </trkpt>
      <trkpt lat="47.27882" lon="-1.61505">
        <ele>46</ele>
        <time>2011-12-18T12:12:31Z</time>
      </trkpt>
      <trkpt lat="47.27807" lon="-1.61515">
        <ele>46</ele>
        <time>2011-12-18T12:12:54Z</time>
      </trkpt>
      <trkpt lat="47.27809" lon="-1.61514">
        <ele>45</ele>
        <time>2011-12-18T12:13:01Z</time>
      </trkpt>
      <trkpt lat="47.2781" lon="-1.61513">
        <ele>43</ele>
        <time>2011-12-18T12:13:09Z</time>
      </trkpt>
      <trkpt lat="47.27818" lon="-1.61516">
        <ele>41</ele>
        <time>2011-12-18T12:13:33Z</time>
      </trkpt>
      <trkpt lat="47.27819" lon="-1.61516">
        <ele>41</ele>
        <time>2011-12-18T12:13:40Z</time>
      </trkpt>
      <trkpt lat="47.27818" lon="-1.61515">
        <ele>41</ele>
        <time>2011-12-18T12:13:50Z</time>
      </trkpt>
      <trkpt lat="47.27816" lon="-1.61514">
        <ele>41</ele>
        <time>2011-12-18T12:13:58Z</time>
      </trkpt>
      <trkpt lat="47.27798" lon="-1.61523">
        <ele>41</ele>
        <time>2011-12-18T12:14:04Z</time>
      </trkpt>
      <trkpt lat="47.27753" lon="-1.61564">
        <ele>41</ele>
        <time>2011-12-18T12:14:14Z</time>
      </trkpt>
      <trkpt lat="47.2769" lon="-1.61599">
        <ele>40</ele>
        <time>2011-12-18T12:14:26Z</time>
      </trkpt>
      <trkpt lat="47.27491" lon="-1.61621">
        <ele>29</ele>
        <time>2011-12-18T12:14:52Z</time>
      </trkpt>
      <trkpt lat="47.27358" lon="-1.61709">
        <ele>43</ele>
        <time>2011-12-18T12:15:29Z</time>
      </trkpt>
      <trkpt lat="47.27329" lon="-1.61756">
        <ele>53</ele>
        <time>2011-12-18T12:15:41Z</time>
      </trkpt>
      <trkpt lat="47.27282" lon="-1.61853">
        <ele>59</ele>
        <time>2011-12-18T12:16:04Z</time>
      </trkpt>
      <trkpt lat="47.27131" lon="-1.62293">
        <ele>35</ele>
        <time>2011-12-18T12:17:16Z</time>
      </trkpt>
      <trkpt lat="47.27118" lon="-1.62316">
        <ele>38</ele>
        <time>2011-12-18T12:17:23Z</time>
      </trkpt>
      <trkpt lat="47.27116" lon="-1.62322">
        <ele>38</ele>
        <time>2011-12-18T12:17:28Z</time>
      </trkpt>
      <trkpt lat="47.2711" lon="-1.62329">
        <ele>38</ele>
        <time>2011-12-18T12:17:28Z</time>
      </trkpt>
      <trkpt lat="47.27107" lon="-1.6233">
        <ele>38</ele>
        <time>2011-12-18T12:17:29Z</time>
      </trkpt>
      <trkpt lat="47.27105" lon="-1.62329">
        <ele>38</ele>
        <time>2011-12-18T12:17:30Z</time>
      </trkpt>
      <trkpt lat="47.271" lon="-1.62323">
        <ele>38</ele>
        <time>2011-12-18T12:17:35Z</time>
      </trkpt>
      <trkpt lat="47.27089" lon="-1.62315">
        <ele>38</ele>
        <time>2011-12-18T12:17:36Z</time>
      </trkpt>
      <trkpt lat="47.27085" lon="-1.62315">
        <ele>38</ele>
        <time>2011-12-18T12:17:37Z</time>
      </trkpt>
      <trkpt lat="47.27081" lon="-1.62316">
        <ele>38</ele>
        <time>2011-12-18T12:17:38Z</time>
      </trkpt>
      <trkpt lat="47.26935" lon="-1.62412">
        <ele>32</ele>
        <time>2011-12-18T12:18:08Z</time>
      </trkpt>
      <trkpt lat="47.26931" lon="-1.62417">
        <ele>31</ele>
        <time>2011-12-18T12:18:09Z</time>
      </trkpt>
      <trkpt lat="47.26925" lon="-1.62433">
        <ele>29</ele>
        <time>2011-12-18T12:18:15Z</time>
      </trkpt>
      <trkpt lat="47.26929" lon="-1.62448">
        <ele>29</ele>
        <time>2011-12-18T12:18:16Z</time>
      </trkpt>
      <trkpt lat="47.2693" lon="-1.6245">
        <ele>29</ele>
        <time>2011-12-18T12:18:17Z</time>
      </trkpt>
      <trkpt lat="47.26941" lon="-1.62461">
        <ele>29</ele>
        <time>2011-12-18T12:18:23Z</time>
      </trkpt>
      <trkpt lat="47.2695" lon="-1.62476">
        <ele>29</ele>
        <time>2011-12-18T12:18:29Z</time>
      </trkpt>
      <trkpt lat="47.26951" lon="-1.62479">
        <ele>29</ele>
        <time>2011-12-18T12:18:30Z</time>
      </trkpt>
      <trkpt lat="47.26967" lon="-1.62649">
        <ele>45</ele>
        <time>2011-12-18T12:19:13Z</time>
      </trkpt>
      <trkpt lat="47.26967" lon="-1.62671">
        <ele>48</ele>
        <time>2011-12-18T12:19:19Z</time>
      </trkpt>
      <trkpt lat="47.26989" lon="-1.62839">
        <ele>49</ele>
        <time>2011-12-18T12:19:58Z</time>
      </trkpt>
      <trkpt lat="47.26989" lon="-1.62843">
        <ele>49</ele>
        <time>2011-12-18T12:20:00Z</time>
      </trkpt>
      <trkpt lat="47.26988" lon="-1.62848">
        <ele>49</ele>
        <time>2011-12-18T12:20:15Z</time>
      </trkpt>
      <trkpt lat="47.26988" lon="-1.6285">
        <ele>49</ele>
        <time>2011-12-18T12:20:21Z</time>
      </trkpt>
      <trkpt lat="47.26985" lon="-1.62856">
        <ele>49</ele>
        <time>2011-12-18T12:20:33Z</time>
      </trkpt>
      <trkpt lat="47.26984" lon="-1.62857">
        <ele>49</ele>
        <time>2011-12-18T12:20:39Z</time>
      </trkpt>
      <trkpt lat="47.26984" lon="-1.62855">
        <ele>49</ele>
        <time>2011-12-18T12:20:44Z</time>
      </trkpt>
      <trkpt lat="47.26986" lon="-1.62853">
        <ele>49</ele>
        <time>2011-12-18T12:20:53Z</time>
      </trkpt>
      <trkpt lat="47.26991" lon="-1.62852">
        <ele>46</ele>
        <time>2011-12-18T12:21:08Z</time>
      </trkpt>
      <trkpt lat="47.26992" lon="-1.62849">
        <ele>45</ele>
        <time>2011-12-18T12:21:09Z</time>
      </trkpt>
      <trkpt lat="47.26964" lon="-1.6255">
        <ele>37</ele>
        <time>2011-12-18T12:21:54Z</time>
      </trkpt>
      <trkpt lat="47.26941" lon="-1.62468">
        <ele>38</ele>
        <time>2011-12-18T12:22:08Z</time>
      </trkpt>
      <trkpt lat="47.26923" lon="-1.62442">
        <ele>37</ele>
        <time>2011-12-18T12:22:14Z</time>
      </trkpt>
      <trkpt lat="47.26914" lon="-1.62437">
        <ele>34</ele>
        <time>2011-12-18T12:22:16Z</time>
      </trkpt>
      <trkpt lat="47.26884" lon="-1.62433">
        <ele>32</ele>
        <time>2011-12-18T12:22:21Z</time>
      </trkpt>
      <trkpt lat="47.26878" lon="-1.6243">
        <ele>30</ele>
        <time>2011-12-18T12:22:22Z</time>
      </trkpt>
      <trkpt lat="47.26813" lon="-1.62374">
        <ele>24</ele>
        <time>2011-12-18T12:22:34Z</time>
      </trkpt>
      <trkpt lat="47.26808" lon="-1.6237">
        <ele>22</ele>
        <time>2011-12-18T12:22:35Z</time>
      </trkpt>
      <trkpt lat="47.26796" lon="-1.62373">
        <ele>21</ele>
        <time>2011-12-18T12:22:40Z</time>
      </trkpt>
      <trkpt lat="47.26794" lon="-1.6238">
        <ele>17</ele>
        <time>2011-12-18T12:22:42Z</time>
      </trkpt>
      <trkpt lat="47.26764" lon="-1.62691">
        <ele>12</ele>
        <time>2011-12-18T12:23:32Z</time>
      </trkpt>
      <trkpt lat="47.26792" lon="-1.6299">
        <ele>19</ele>
        <time>2011-12-18T12:24:17Z</time>
      </trkpt>
      <trkpt lat="47.26812" lon="-1.6303">
        <ele>19</ele>
        <time>2011-12-18T12:24:29Z</time>
      </trkpt>
      <trkpt lat="47.26824" lon="-1.63034">
        <ele>19</ele>
        <time>2011-12-18T12:24:32Z</time>
      </trkpt>
      <trkpt lat="47.26827" lon="-1.63038">
        <ele>18</ele>
        <time>2011-12-18T12:24:37Z</time>
      </trkpt>
      <trkpt lat="47.26828" lon="-1.63045">
        <ele>18</ele>
        <time>2011-12-18T12:24:37Z</time>
      </trkpt>
      <trkpt lat="47.26828" lon="-1.63046">
        <ele>17</ele>
        <time>2011-12-18T12:24:41Z</time>
      </trkpt>
      <trkpt lat="47.26824" lon="-1.63053">
        <ele>17</ele>
        <time>2011-12-18T12:24:55Z</time>
      </trkpt>
      <trkpt lat="47.26824" lon="-1.63054">
        <ele>17</ele>
        <time>2011-12-18T12:25:04Z</time>
      </trkpt>
      <trkpt lat="47.26825" lon="-1.63056">
        <ele>17</ele>
        <time>2011-12-18T12:25:04Z</time>
      </trkpt>
      <trkpt lat="47.26828" lon="-1.63072">
        <ele>17</ele>
        <time>2011-12-18T12:25:14Z</time>
      </trkpt>
      <trkpt lat="47.26826" lon="-1.63081">
        <ele>17</ele>
        <time>2011-12-18T12:25:20Z</time>
      </trkpt>
      <trkpt lat="47.2683" lon="-1.63092">
        <ele>17</ele>
        <time>2011-12-18T12:25:22Z</time>
      </trkpt>
      <trkpt lat="47.2683" lon="-1.63095">
        <ele>17</ele>
        <time>2011-12-18T12:25:23Z</time>
      </trkpt>
      <trkpt lat="47.26829" lon="-1.63101">
        <ele>17</ele>
        <time>2011-12-18T12:25:28Z</time>
      </trkpt>
      <trkpt lat="47.2683" lon="-1.63109">
        <ele>17</ele>
        <time>2011-12-18T12:25:29Z</time>
      </trkpt>
      <trkpt lat="47.26836" lon="-1.63115">
        <ele>17</ele>
        <time>2011-12-18T12:25:36Z</time>
      </trkpt>
      <trkpt lat="47.26845" lon="-1.63135">
        <ele>18</ele>
        <time>2011-12-18T12:25:37Z</time>
      </trkpt>
      <trkpt lat="47.26847" lon="-1.6314">
        <ele>19</ele>
        <time>2011-12-18T12:25:38Z</time>
      </trkpt>
      <trkpt lat="47.26859" lon="-1.63166">
        <ele>21</ele>
        <time>2011-12-18T12:25:44Z</time>
      </trkpt>
      <trkpt lat="47.26859" lon="-1.63167">
        <ele>22</ele>
        <time>2011-12-18T12:25:45Z</time>
      </trkpt>
      <trkpt lat="47.26859" lon="-1.6317">
        <ele>23</ele>
        <time>2011-12-18T12:25:49Z</time>
      </trkpt>
      <trkpt lat="47.26862" lon="-1.63176">
        <ele>26</ele>
        <time>2011-12-18T12:25:52Z</time>
      </trkpt>
      <trkpt lat="47.26864" lon="-1.63181">
        <ele>26</ele>
        <time>2011-12-18T12:25:58Z</time>
      </trkpt>
      <trkpt lat="47.26868" lon="-1.63187">
        <ele>26</ele>
        <time>2011-12-18T12:25:59Z</time>
      </trkpt>
      <trkpt lat="47.26868" lon="-1.63189">
        <ele>26</ele>
        <time>2011-12-18T12:26:01Z</time>
      </trkpt>
      <trkpt lat="47.26868" lon="-1.63194">
        <ele>26</ele>
        <time>2011-12-18T12:26:08Z</time>
      </trkpt>
      <trkpt lat="47.26871" lon="-1.63203">
        <ele>26</ele>
        <time>2011-12-18T12:26:09Z</time>
      </trkpt>
      <trkpt lat="47.26872" lon="-1.63204">
        <ele>26</ele>
        <time>2011-12-18T12:26:09Z</time>
      </trkpt>
      <trkpt lat="47.26895" lon="-1.63222">
        <ele>24</ele>
        <time>2011-12-18T12:26:21Z</time>
      </trkpt>
      <trkpt lat="47.26903" lon="-1.63224">
        <ele>24</ele>
        <time>2011-12-18T12:26:27Z</time>
      </trkpt>
      <trkpt lat="47.26909" lon="-1.63229">
        <ele>24</ele>
        <time>2011-12-18T12:26:27Z</time>
      </trkpt>
      <trkpt lat="47.26911" lon="-1.63231">
        <ele>25</ele>
        <time>2011-12-18T12:26:28Z</time>
      </trkpt>
      <trkpt lat="47.26914" lon="-1.63233">
        <ele>26</ele>
        <time>2011-12-18T12:26:33Z</time>
      </trkpt>
      <trkpt lat="47.26928" lon="-1.63242">
        <ele>29</ele>
        <time>2011-12-18T12:26:39Z</time>
      </trkpt>
      <trkpt lat="47.26932" lon="-1.63247">
        <ele>30</ele>
        <time>2011-12-18T12:26:40Z</time>
      </trkpt>
      <trkpt lat="47.26936" lon="-1.63249">
        <ele>32</ele>
        <time>2011-12-18T12:26:42Z</time>
      </trkpt>
      <trkpt lat="47.26939" lon="-1.63251">
        <ele>32</ele>
        <time>2011-12-18T12:26:46Z</time>
      </trkpt>
      <trkpt lat="47.26954" lon="-1.63264">
        <ele>32</ele>
        <time>2011-12-18T12:26:57Z</time>
      </trkpt>
      <trkpt lat="47.26955" lon="-1.63264">
        <ele>32</ele>
        <time>2011-12-18T12:26:58Z</time>
      </trkpt>
      <trkpt lat="47.26961" lon="-1.63269">
        <ele>32</ele>
        <time>2011-12-18T12:27:04Z</time>
      </trkpt>
      <trkpt lat="47.26964" lon="-1.63268">
        <ele>30</ele>
        <time>2011-12-18T12:27:06Z</time>
      </trkpt>
      <trkpt lat="47.26999" lon="-1.63278">
        <ele>27</ele>
        <time>2011-12-18T12:27:31Z</time>
      </trkpt>
      <trkpt lat="47.27005" lon="-1.63277">
        <ele>27</ele>
        <time>2011-12-18T12:27:33Z</time>
      </trkpt>
      <trkpt lat="47.27022" lon="-1.63278">
        <ele>28</ele>
        <time>2011-12-18T12:27:50Z</time>
      </trkpt>
      <trkpt lat="47.27028" lon="-1.63281">
        <ele>28</ele>
        <time>2011-12-18T12:27:51Z</time>
      </trkpt>
      <trkpt lat="47.27029" lon="-1.63282">
        <ele>28</ele>
        <time>2011-12-18T12:27:52Z</time>
      </trkpt>
      <trkpt lat="47.27031" lon="-1.63284">
        <ele>29</ele>
        <time>2011-12-18T12:27:53Z</time>
      </trkpt>
      <trkpt lat="47.27034" lon="-1.63288">
        <ele>29</ele>
        <time>2011-12-18T12:28:00Z</time>
      </trkpt>
      <trkpt lat="47.27036" lon="-1.63292">
        <ele>29</ele>
        <time>2011-12-18T12:28:01Z</time>
      </trkpt>
      <trkpt lat="47.27041" lon="-1.63393">
        <ele>32</ele>
        <time>2011-12-18T12:28:28Z</time>
      </trkpt>
      <trkpt lat="47.27048" lon="-1.63413">
        <ele>32</ele>
        <time>2011-12-18T12:28:33Z</time>
      </trkpt>
      <trkpt lat="47.27054" lon="-1.63419">
        <ele>33</ele>
        <time>2011-12-18T12:28:35Z</time>
      </trkpt>
      <trkpt lat="47.27074" lon="-1.6343">
        <ele>34</ele>
        <time>2011-12-18T12:28:42Z</time>
      </trkpt>
      <trkpt lat="47.27084" lon="-1.63446">
        <ele>34</ele>
        <time>2011-12-18T12:28:47Z</time>
      </trkpt>
      <trkpt lat="47.27085" lon="-1.6345">
        <ele>34</ele>
        <time>2011-12-18T12:28:48Z</time>
      </trkpt>
      <trkpt lat="47.27092" lon="-1.6355">
        <ele>39</ele>
        <time>2011-12-18T12:29:14Z</time>
      </trkpt>
      <trkpt lat="47.27079" lon="-1.6361">
        <ele>43</ele>
        <time>2011-12-18T12:29:29Z</time>
      </trkpt>
      <trkpt lat="47.27068" lon="-1.63669">
        <ele>46</ele>
        <time>2011-12-18T12:29:41Z</time>
      </trkpt>
      <trkpt lat="47.27067" lon="-1.63883">
        <ele>46</ele>
        <time>2011-12-18T12:30:13Z</time>
      </trkpt>
      <trkpt lat="47.27074" lon="-1.63903">
        <ele>46</ele>
        <time>2011-12-18T12:30:18Z</time>
      </trkpt>
      <trkpt lat="47.2708" lon="-1.63908">
        <ele>46</ele>
        <time>2011-12-18T12:30:23Z</time>
      </trkpt>
      <trkpt lat="47.27135" lon="-1.64005">
        <ele>46</ele>
        <time>2011-12-18T12:30:46Z</time>
      </trkpt>
      <trkpt lat="47.27247" lon="-1.64254">
        <ele>42</ele>
        <time>2011-12-18T12:31:26Z</time>
      </trkpt>
      <trkpt lat="47.27249" lon="-1.64257">
        <ele>41</ele>
        <time>2011-12-18T12:31:27Z</time>
      </trkpt>
      <trkpt lat="47.27329" lon="-1.64397">
        <ele>42</ele>
        <time>2011-12-18T12:32:16Z</time>
      </trkpt>
      <trkpt lat="47.2733" lon="-1.644">
        <ele>43</ele>
        <time>2011-12-18T12:32:21Z</time>
      </trkpt>
      <trkpt lat="47.27333" lon="-1.64405">
        <ele>43</ele>
        <time>2011-12-18T12:32:22Z</time>
      </trkpt>
      <trkpt lat="47.27335" lon="-1.64407">
        <ele>44</ele>
        <time>2011-12-18T12:32:23Z</time>
      </trkpt>
      <trkpt lat="47.27336" lon="-1.64408">
        <ele>44</ele>
        <time>2011-12-18T12:32:24Z</time>
      </trkpt>
      <trkpt lat="47.27338" lon="-1.64411">
        <ele>45</ele>
        <time>2011-12-18T12:32:29Z</time>
      </trkpt>
      <trkpt lat="47.27349" lon="-1.64423">
        <ele>46</ele>
        <time>2011-12-18T12:32:35Z</time>
      </trkpt>
      <trkpt lat="47.27352" lon="-1.64429">
        <ele>47</ele>
        <time>2011-12-18T12:32:36Z</time>
      </trkpt>
      <trkpt lat="47.27368" lon="-1.64449">
        <ele>48</ele>
        <time>2011-12-18T12:32:48Z</time>
      </trkpt>
      <trkpt lat="47.27371" lon="-1.64451">
        <ele>48</ele>
        <time>2011-12-18T12:32:53Z</time>
      </trkpt>
      <trkpt lat="47.27391" lon="-1.64474">
        <ele>48</ele>
        <time>2011-12-18T12:33:01Z</time>
      </trkpt>
      <trkpt lat="47.27394" lon="-1.64477">
        <ele>48</ele>
        <time>2011-12-18T12:33:03Z</time>
      </trkpt>
      <trkpt lat="47.27415" lon="-1.64492">
        <ele>46</ele>
        <time>2011-12-18T12:33:15Z</time>
      </trkpt>
      <trkpt lat="47.27416" lon="-1.64491">
        <ele>45</ele>
        <time>2011-12-18T12:33:17Z</time>
      </trkpt>
      <trkpt lat="47.27418" lon="-1.64492">
        <ele>45</ele>
        <time>2011-12-18T12:33:23Z</time>
      </trkpt>
      <trkpt lat="47.27415" lon="-1.64493">
        <ele>45</ele>
        <time>2011-12-18T12:33:26Z</time>
      </trkpt>
      <trkpt lat="47.27412" lon="-1.64493">
        <ele>45</ele>
        <time>2011-12-18T12:33:32Z</time>
      </trkpt>
      <trkpt lat="47.27411" lon="-1.64494">
        <ele>45</ele>
        <time>2011-12-18T12:33:47Z</time>
      </trkpt>
      <trkpt lat="47.27412" lon="-1.64496">
        <ele>45</ele>
        <time>2011-12-18T12:34:02Z</time>
      </trkpt>
      <trkpt lat="47.27411" lon="-1.64496">
        <ele>45</ele>
        <time>2011-12-18T12:34:04Z</time>
      </trkpt>
      <trkpt lat="47.27411" lon="-1.64499">
        <ele>45</ele>
        <time>2011-12-18T12:34:35Z</time>
      </trkpt>
      <trkpt lat="47.27412" lon="-1.645">
        <ele>45</ele>
        <time>2011-12-18T12:34:51Z</time>
      </trkpt>
      <trkpt lat="47.27413" lon="-1.645">
        <ele>45</ele>
        <time>2011-12-18T12:35:23Z</time>
      </trkpt>
      <trkpt lat="47.27415" lon="-1.645">
        <ele>45</ele>
        <time>2011-12-18T12:35:40Z</time>
      </trkpt>
      <trkpt lat="47.27417" lon="-1.645">
        <ele>45</ele>
        <time>2011-12-18T12:35:55Z</time>
      </trkpt>
      <trkpt lat="47.27418" lon="-1.64499">
        <ele>45</ele>
        <time>2011-12-18T12:36:03Z</time>
      </trkpt>
      <trkpt lat="47.27418" lon="-1.64497">
        <ele>45</ele>
        <time>2011-12-18T12:36:11Z</time>
      </trkpt>
      <trkpt lat="47.27416" lon="-1.64496">
        <ele>45</ele>
        <time>2011-12-18T12:36:19Z</time>
      </trkpt>
      <trkpt lat="47.27416" lon="-1.64497">
        <ele>46</ele>
        <time>2011-12-18T12:36:35Z</time>
      </trkpt>
      <trkpt lat="47.27415" lon="-1.64497">
        <ele>47</ele>
        <time>2011-12-18T12:36:45Z</time>
      </trkpt>
      <trkpt lat="47.27414" lon="-1.64497">
        <ele>48</ele>
        <time>2011-12-18T12:37:00Z</time>
      </trkpt>
      <trkpt lat="47.27412" lon="-1.64495">
        <ele>48</ele>
        <time>2011-12-18T12:37:03Z</time>
      </trkpt>
      <trkpt lat="47.27411" lon="-1.64495">
        <ele>48</ele>
        <time>2011-12-18T12:37:09Z</time>
      </trkpt>
      <trkpt lat="47.2741" lon="-1.64496">
        <ele>48</ele>
        <time>2011-12-18T12:37:16Z</time>
      </trkpt>
      <trkpt lat="47.27407" lon="-1.64497">
        <ele>48</ele>
        <time>2011-12-18T12:37:25Z</time>
      </trkpt>
      <trkpt lat="47.27405" lon="-1.64497">
        <ele>46</ele>
        <time>2011-12-18T12:37:27Z</time>
      </trkpt>
      <trkpt lat="47.27402" lon="-1.64497">
        <ele>46</ele>
        <time>2011-12-18T12:37:31Z</time>
      </trkpt>
      <trkpt lat="47.27395" lon="-1.645">
        <ele>45</ele>
        <time>2011-12-18T12:37:33Z</time>
      </trkpt>
      <trkpt lat="47.27363" lon="-1.64518">
        <ele>41</ele>
        <time>2011-12-18T12:37:44Z</time>
      </trkpt>
      <trkpt lat="47.27321" lon="-1.64533">
        <ele>40</ele>
        <time>2011-12-18T12:37:51Z</time>
      </trkpt>
      <trkpt lat="47.27217" lon="-1.64533">
        <ele>38</ele>
        <time>2011-12-18T12:38:26Z</time>
      </trkpt>
      <trkpt lat="47.27219" lon="-1.64533">
        <ele>38</ele>
        <time>2011-12-18T12:38:27Z</time>
      </trkpt>
      <trkpt lat="47.2722" lon="-1.64534">
        <ele>38</ele>
        <time>2011-12-18T12:38:34Z</time>
      </trkpt>
      <trkpt lat="47.27254" lon="-1.64534">
        <ele>38</ele>
        <time>2011-12-18T12:38:51Z</time>
      </trkpt>
      <trkpt lat="47.27257" lon="-1.64535">
        <ele>38</ele>
        <time>2011-12-18T12:38:57Z</time>
      </trkpt>
      <trkpt lat="47.27337" lon="-1.64529">
        <ele>38</ele>
        <time>2011-12-18T12:39:17Z</time>
      </trkpt>
      <trkpt lat="47.27391" lon="-1.645">
        <ele>39</ele>
        <time>2011-12-18T12:39:31Z</time>
      </trkpt>
      <trkpt lat="47.27398" lon="-1.64497">
        <ele>39</ele>
        <time>2011-12-18T12:39:36Z</time>
      </trkpt>
      <trkpt lat="47.27473" lon="-1.64486">
        <ele>43</ele>
        <time>2011-12-18T12:39:56Z</time>
      </trkpt>
      <trkpt lat="47.27528" lon="-1.64457">
        <ele>45</ele>
        <time>2011-12-18T12:40:11Z</time>
      </trkpt>
      <trkpt lat="47.27544" lon="-1.64453">
        <ele>46</ele>
        <time>2011-12-18T12:40:17Z</time>
      </trkpt>
      <trkpt lat="47.27546" lon="-1.64453">
        <ele>46</ele>
        <time>2011-12-18T12:40:18Z</time>
      </trkpt>
      <trkpt lat="47.27548" lon="-1.64455">
        <ele>46</ele>
        <time>2011-12-18T12:40:19Z</time>
      </trkpt>
      <trkpt lat="47.27561" lon="-1.64526">
        <ele>46</ele>
        <time>2011-12-18T12:40:32Z</time>
      </trkpt>
      <trkpt lat="47.27521" lon="-1.64818">
        <ele>49</ele>
        <time>2011-12-18T12:41:17Z</time>
      </trkpt>
      <trkpt lat="47.27551" lon="-1.65095">
        <ele>49</ele>
        <time>2011-12-18T12:41:57Z</time>
      </trkpt>
      <trkpt lat="47.27618" lon="-1.6525">
        <ele>53</ele>
        <time>2011-12-18T12:42:24Z</time>
      </trkpt>
      <trkpt lat="47.27627" lon="-1.6526">
        <ele>53</ele>
        <time>2011-12-18T12:42:25Z</time>
      </trkpt>
      <trkpt lat="47.27639" lon="-1.65313">
        <ele>53</ele>
        <time>2011-12-18T12:42:34Z</time>
      </trkpt>
      <trkpt lat="47.27652" lon="-1.65335">
        <ele>53</ele>
        <time>2011-12-18T12:42:39Z</time>
      </trkpt>
      <trkpt lat="47.27666" lon="-1.65345">
        <ele>51</ele>
        <time>2011-12-18T12:42:46Z</time>
      </trkpt>
      <trkpt lat="47.27675" lon="-1.65346">
        <ele>50</ele>
        <time>2011-12-18T12:42:47Z</time>
      </trkpt>
      <trkpt lat="47.27677" lon="-1.65348">
        <ele>49</ele>
        <time>2011-12-18T12:42:48Z</time>
      </trkpt>
      <trkpt lat="47.27688" lon="-1.65365">
        <ele>49</ele>
        <time>2011-12-18T12:42:55Z</time>
      </trkpt>
      <trkpt lat="47.27706" lon="-1.65423">
        <ele>49</ele>
        <time>2011-12-18T12:43:14Z</time>
      </trkpt>
      <trkpt lat="47.27729" lon="-1.65443">
        <ele>49</ele>
        <time>2011-12-18T12:43:22Z</time>
      </trkpt>
      <trkpt lat="47.27732" lon="-1.65444">
        <ele>49</ele>
        <time>2011-12-18T12:43:23Z</time>
      </trkpt>
      <trkpt lat="47.27756" lon="-1.65442">
        <ele>49</ele>
        <time>2011-12-18T12:43:30Z</time>
      </trkpt>
      <trkpt lat="47.27852" lon="-1.65462">
        <ele>48</ele>
        <time>2011-12-18T12:43:57Z</time>
      </trkpt>
      <trkpt lat="47.27869" lon="-1.65472">
        <ele>46</ele>
        <time>2011-12-18T12:44:04Z</time>
      </trkpt>
      <trkpt lat="47.27872" lon="-1.65472">
        <ele>46</ele>
        <time>2011-12-18T12:44:05Z</time>
      </trkpt>
      <trkpt lat="47.27877" lon="-1.65475">
        <ele>46</ele>
        <time>2011-12-18T12:44:10Z</time>
      </trkpt>
      <trkpt lat="47.27895" lon="-1.65499">
        <ele>46</ele>
        <time>2011-12-18T12:44:18Z</time>
      </trkpt>
      <trkpt lat="47.27898" lon="-1.65504">
        <ele>47</ele>
        <time>2011-12-18T12:44:24Z</time>
      </trkpt>
      <trkpt lat="47.27901" lon="-1.65517">
        <ele>48</ele>
        <time>2011-12-18T12:44:25Z</time>
      </trkpt>
      <trkpt lat="47.27901" lon="-1.6552">
        <ele>49</ele>
        <time>2011-12-18T12:44:26Z</time>
      </trkpt>
      <trkpt lat="47.27924" lon="-1.66003">
        <ele>58</ele>
        <time>2011-12-18T12:45:58Z</time>
      </trkpt>
    </trkseg>
  </trk>
</gpx>